PWSweather.com
Personal Weather Stations
Station Observations
BOOMEPH
Weather On The Hill Or Not, Ephrata, PA 17522

Weather On The Hill Or NotEphrata, PA 17522

Lat: 40.17243, Lon: -76.180815

Elevation: 597

Station Type: Ambient WS 1080

Latest ConditionsUpdated 9:42:00 AM EDT Friday, Jul 25, 2014
Currently Today's Max Today's Min Today's Average
Temperature 69.3°F20.7°C 69.3°F20.7°C 56.7°F13.7°C 61.0°F16.1°C
Dew Point 58.3°F14.6°C 58.5°F14.7°C 55.3°F12.9°C 56.6°F13.7°C
Winds 2.2 mph ENE3.5 kmh ENE 6.9 mph NE11.1 kmh NE - 1.8 mph 2.9 kmh
Wind Gusts 7.6 mph12.2 kmh 9.8 mph15.8 kmh - -
Humidity 68% 100% 67% 86%
Pressure 30.44 in1030.8 mb 30.44 in1030.8 mb 30.33 in1027.1 mb -
Hour Temp Dew Point Humidity Winds Wind Gusts Pressure Precip Precip Rate Daily Precip Total
09:42 AM 69.3°F20.7°C 58.3°F14.6°C 68% 2.2 mph ENE3.5 kmh ENE 7.6 mph12.2 kmh 30.44 in1030.8 mb 0.00 in0.0 mm 0.00 in/hr0.0 mm/hr 0.00 in0.0 mm
09:41 AM 68.0°F20.0°C 56.7°F13.7°C 67% 0.7 mph ENE1.1 kmh ENE 7.6 mph12.2 kmh 30.44 in1030.8 mb 0.00 in0.0 mm 0.00 in/hr0.0 mm/hr 0.00 in0.0 mm
09:40 AM 67.6°F19.8°C 57.5°F14.2°C 70% 2.2 mph ENE3.5 kmh ENE 7.6 mph12.2 kmh 30.44 in1030.8 mb 0.00 in0.0 mm 0.00 in/hr0.0 mm/hr 0.00 in0.0 mm
09:39 AM 67.6°F19.8°C 57.5°F14.2°C 70% 3.1 mph ENE5.0 kmh ENE 7.6 mph12.2 kmh 30.44 in1030.8 mb 0.00 in0.0 mm 0.00 in/hr0.0 mm/hr 0.00 in0.0 mm
09:38 AM 67.6°F19.8°C 57.5°F14.2°C 70% 3.1 mph ENE5.0 kmh ENE 7.6 mph12.2 kmh 30.44 in1030.8 mb 0.00 in0.0 mm 0.00 in/hr0.0 mm/hr 0.00 in0.0 mm
09:37 AM 67.8°F19.9°C 58.1°F14.5°C 71% 3.1 mph ENE5.0 kmh ENE 7.6 mph12.2 kmh 30.44 in1030.8 mb 0.00 in0.0 mm 0.00 in/hr0.0 mm/hr 0.00 in0.0 mm
09:36 AM 67.3°F19.6°C 57.2°F14.0°C 70% 3.1 mph ENE5.0 kmh ENE 7.6 mph12.2 kmh 30.43 in1030.5 mb 0.00 in0.0 mm 0.00 in/hr0.0 mm/hr 0.00 in0.0 mm
09:35 AM 67.5°F19.7°C 57.4°F14.1°C 70% 5.4 mph ENE8.7 kmh ENE 7.6 mph12.2 kmh 30.44 in1030.8 mb 0.00 in0.0 mm 0.00 in/hr0.0 mm/hr 0.00 in0.0 mm
09:34 AM 67.5°F19.7°C 57.4°F14.1°C 70% 4.5 mph ENE7.2 kmh ENE 8.3 mph13.4 kmh 30.44 in1030.8 mb 0.00 in0.0 mm 0.00 in/hr0.0 mm/hr 0.00 in0.0 mm
09:33 AM 67.3°F19.6°C 57.2°F14.0°C 70% 2.2 mph ENE3.5 kmh ENE 8.3 mph13.4 kmh 30.43 in1030.5 mb 0.00 in0.0 mm 0.00 in/hr0.0 mm/hr 0.00 in0.0 mm
09:32 AM 67.5°F19.7°C 57.4°F14.1°C 70% 4.5 mph ENE7.2 kmh ENE 8.3 mph13.4 kmh 30.43 in1030.5 mb 0.00 in0.0 mm 0.00 in/hr0.0 mm/hr 0.00 in0.0 mm
09:31 AM 67.8°F19.9°C 57.7°F14.3°C 70% 3.1 mph ENE5.0 kmh ENE 8.3 mph13.4 kmh 30.43 in1030.5 mb 0.00 in0.0 mm 0.00 in/hr0.0 mm/hr 0.00 in0.0 mm
09:30 AM 67.6°F19.8°C 57.5°F14.2°C 70% 2.2 mph NE3.5 kmh NE 8.3 mph13.4 kmh 30.43 in1030.5 mb 0.00 in0.0 mm 0.00 in/hr0.0 mm/hr 0.00 in0.0 mm
09:29 AM 67.5°F19.7°C 57.8°F14.3°C 71% 3.1 mph NE5.0 kmh NE 8.3 mph13.4 kmh 30.43 in1030.5 mb 0.00 in0.0 mm 0.00 in/hr0.0 mm/hr 0.00 in0.0 mm
09:28 AM 66.6°F19.2°C 56.9°F13.8°C 71% 0.7 mph NE1.1 kmh NE 8.3 mph13.4 kmh 30.43 in1030.5 mb 0.00 in0.0 mm 0.00 in/hr0.0 mm/hr 0.00 in0.0 mm
09:27 AM 66.2°F19.0°C 56.5°F13.6°C 71% 3.8 mph NE6.1 kmh NE 8.3 mph13.4 kmh 30.43 in1030.5 mb 0.00 in0.0 mm 0.00 in/hr0.0 mm/hr 0.00 in0.0 mm
09:26 AM 66.2°F19.0°C 56.5°F13.6°C 71% 3.8 mph NE6.1 kmh NE 8.3 mph13.4 kmh 30.43 in1030.5 mb 0.00 in0.0 mm 0.00 in/hr0.0 mm/hr 0.00 in0.0 mm
09:25 AM 66.0°F18.9°C 56.8°F13.8°C 72% 6.0 mph NE9.7 kmh NE 8.3 mph13.4 kmh 30.42 in1030.1 mb 0.00 in0.0 mm 0.00 in/hr0.0 mm/hr 0.00 in0.0 mm
09:24 AM 66.0°F18.9°C 57.1°F13.9°C 73% 4.5 mph NE7.2 kmh NE 8.3 mph13.4 kmh 30.42 in1030.1 mb 0.00 in0.0 mm 0.00 in/hr0.0 mm/hr 0.00 in0.0 mm
09:23 AM 66.2°F19.0°C 56.9°F13.8°C 72% 3.8 mph NE6.1 kmh NE 8.3 mph13.4 kmh 30.42 in1030.1 mb 0.00 in0.0 mm 0.00 in/hr0.0 mm/hr 0.00 in0.0 mm
09:22 AM 66.2°F19.0°C 57.3°F14.1°C 73% 3.1 mph ENE5.0 kmh ENE 8.3 mph13.4 kmh 30.42 in1030.1 mb 0.00 in0.0 mm 0.00 in/hr0.0 mm/hr 0.00 in0.0 mm
09:21 AM 65.3°F18.5°C 56.4°F13.6°C 73% 2.2 mph NE3.5 kmh NE 8.3 mph13.4 kmh 30.42 in1030.1 mb 0.00 in0.0 mm 0.00 in/hr0.0 mm/hr 0.00 in0.0 mm
09:20 AM 65.8°F18.8°C 57.0°F13.9°C 73% 6.0 mph ENE9.7 kmh ENE 9.2 mph14.8 kmh 30.42 in1030.1 mb 0.00 in0.0 mm 0.00 in/hr0.0 mm/hr 0.00 in0.0 mm
09:19 AM 65.8°F18.8°C 57.0°F13.9°C 73% 4.5 mph NE7.2 kmh NE 9.2 mph14.8 kmh 30.42 in1030.1 mb 0.00 in0.0 mm 0.00 in/hr0.0 mm/hr 0.00 in0.0 mm
09:18 AM 65.7°F18.7°C 56.8°F13.8°C 73% 4.5 mph ENE7.2 kmh ENE 9.2 mph14.8 kmh 30.42 in1030.1 mb 0.00 in0.0 mm 0.00 in/hr0.0 mm/hr 0.00 in0.0 mm
09:17 AM 65.8°F18.8°C 57.0°F13.9°C 73% 5.4 mph NE8.7 kmh NE 9.2 mph14.8 kmh 30.42 in1030.1 mb 0.00 in0.0 mm 0.00 in/hr0.0 mm/hr 0.00 in0.0 mm
09:16 AM 65.7°F18.7°C 56.8°F13.8°C 73% 3.8 mph NE6.1 kmh NE 9.2 mph14.8 kmh 30.42 in1030.1 mb 0.00 in0.0 mm 0.00 in/hr0.0 mm/hr 0.00 in0.0 mm
09:15 AM 65.8°F18.8°C 57.7°F14.3°C 75% 4.5 mph NE7.2 kmh NE 9.2 mph14.8 kmh 30.42 in1030.1 mb 0.00 in0.0 mm 0.00 in/hr0.0 mm/hr 0.00 in0.0 mm
09:14 AM 65.5°F18.6°C 57.4°F14.1°C 75% 3.1 mph NE5.0 kmh NE 9.2 mph14.8 kmh 30.42 in1030.1 mb 0.00 in0.0 mm 0.00 in/hr0.0 mm/hr 0.00 in0.0 mm
09:13 AM 64.8°F18.2°C 55.9°F13.3°C 73% 3.8 mph NE6.1 kmh NE 9.2 mph14.8 kmh 30.42 in1030.1 mb 0.00 in0.0 mm 0.00 in/hr0.0 mm/hr 0.00 in0.0 mm
09:12 AM 65.1°F18.4°C 57.0°F13.9°C 75% 4.5 mph NE7.2 kmh NE 9.2 mph14.8 kmh 30.42 in1030.1 mb 0.00 in0.0 mm 0.00 in/hr0.0 mm/hr 0.00 in0.0 mm
09:11 AM 64.8°F18.2°C 55.9°F13.3°C 73% 3.8 mph NE6.1 kmh NE 9.2 mph14.8 kmh 30.42 in1030.1 mb 0.00 in0.0 mm 0.00 in/hr0.0 mm/hr 0.00 in0.0 mm
09:10 AM 64.9°F18.3°C 56.1°F13.4°C 73% 6.9 mph NE11.1 kmh NE 9.2 mph14.8 kmh 30.42 in1030.1 mb 0.00 in0.0 mm 0.00 in/hr0.0 mm/hr 0.00 in0.0 mm
09:09 AM 65.1°F18.4°C 56.3°F13.5°C 73% 3.8 mph NE6.1 kmh NE 9.2 mph14.8 kmh 30.42 in1030.1 mb 0.00 in0.0 mm 0.00 in/hr0.0 mm/hr 0.00 in0.0 mm
09:08 AM 65.1°F18.4°C 56.3°F13.5°C 73% 3.8 mph NE6.1 kmh NE 9.2 mph14.8 kmh 30.42 in1030.1 mb 0.00 in0.0 mm 0.00 in/hr0.0 mm/hr 0.00 in0.0 mm
09:07 AM 65.1°F18.4°C 56.3°F13.5°C 73% 4.5 mph NE7.2 kmh NE 9.2 mph14.8 kmh 30.43 in1030.5 mb 0.00 in0.0 mm 0.00 in/hr0.0 mm/hr 0.00 in0.0 mm
09:06 AM 65.3°F18.5°C 57.2°F14.0°C 75% 3.8 mph NE6.1 kmh NE 9.2 mph14.8 kmh 30.42 in1030.1 mb 0.00 in0.0 mm 0.00 in/hr0.0 mm/hr 0.00 in0.0 mm
09:05 AM 65.1°F18.4°C 57.0°F13.9°C 75% 3.8 mph NE6.1 kmh NE 9.2 mph14.8 kmh 30.42 in1030.1 mb 0.00 in0.0 mm 0.00 in/hr0.0 mm/hr 0.00 in0.0 mm
09:04 AM 64.6°F18.1°C 55.7°F13.2°C 73% 4.5 mph ENE7.2 kmh ENE 9.2 mph14.8 kmh 30.42 in1030.1 mb 0.00 in0.0 mm 0.00 in/hr0.0 mm/hr 0.00 in0.0 mm
09:03 AM 64.9°F18.3°C 56.8°F13.8°C 75% 5.4 mph ENE8.7 kmh ENE 9.2 mph14.8 kmh 30.42 in1030.1 mb 0.00 in0.0 mm 0.00 in/hr0.0 mm/hr 0.00 in0.0 mm
09:02 AM 64.8°F18.2°C 55.9°F13.3°C 73% 3.8 mph NE6.1 kmh NE 7.6 mph12.2 kmh 30.42 in1030.1 mb 0.00 in0.0 mm 0.00 in/hr0.0 mm/hr 0.00 in0.0 mm
09:01 AM 64.4°F18.0°C 55.6°F13.1°C 73% 4.5 mph NE7.2 kmh NE 6.9 mph11.1 kmh 30.43 in1030.5 mb 0.00 in0.0 mm 0.00 in/hr0.0 mm/hr 0.00 in0.0 mm
09:00 AM 65.1°F18.4°C 56.3°F13.5°C 73% 5.4 mph NE8.7 kmh NE 6.9 mph11.1 kmh 30.43 in1030.5 mb 0.00 in0.0 mm 0.00 in/hr0.0 mm/hr 0.00 in0.0 mm
08:59 AM 64.9°F18.3°C 56.1°F13.4°C 73% 2.2 mph NE3.5 kmh NE 6.9 mph11.1 kmh 30.43 in1030.5 mb 0.00 in0.0 mm 0.00 in/hr0.0 mm/hr 0.00 in0.0 mm
08:58 AM 65.5°F18.6°C 57.4°F14.1°C 75% 4.5 mph ENE7.2 kmh ENE 6.9 mph11.1 kmh 30.43 in1030.5 mb 0.00 in0.0 mm 0.00 in/hr0.0 mm/hr 0.00 in0.0 mm
08:57 AM 65.7°F18.7°C 58.3°F14.6°C 77% 1.6 mph ENE2.6 kmh ENE 6.9 mph11.1 kmh 30.43 in1030.5 mb 0.00 in0.0 mm 0.00 in/hr0.0 mm/hr 0.00 in0.0 mm
08:56 AM 64.6°F18.1°C 56.9°F13.8°C 76% 1.6 mph ENE2.6 kmh ENE 6.9 mph11.1 kmh 30.43 in1030.5 mb 0.00 in0.0 mm 0.00 in/hr0.0 mm/hr 0.00 in0.0 mm
08:55 AM 64.4°F18.0°C 56.3°F13.5°C 75% 1.6 mph ENE2.6 kmh ENE 6.9 mph11.1 kmh 30.43 in1030.5 mb 0.00 in0.0 mm 0.00 in/hr0.0 mm/hr 0.00 in0.0 mm
08:54 AM 64.2°F17.9°C 56.1°F13.4°C 75% 2.2 mph ENE3.5 kmh ENE 6.9 mph11.1 kmh 30.42 in1030.1 mb 0.00 in0.0 mm 0.00 in/hr0.0 mm/hr 0.00 in0.0 mm
08:53 AM 64.4°F18.0°C 56.3°F13.5°C 75% 3.8 mph ENE6.1 kmh ENE 6.9 mph11.1 kmh 30.43 in1030.5 mb 0.00 in0.0 mm 0.00 in/hr0.0 mm/hr 0.00 in0.0 mm
08:52 AM 64.6°F18.1°C 56.5°F13.6°C 75% 3.1 mph ENE5.0 kmh ENE 6.9 mph11.1 kmh 30.43 in1030.5 mb 0.00 in0.0 mm 0.00 in/hr0.0 mm/hr 0.00 in0.0 mm
08:51 AM 64.8°F18.2°C 56.7°F13.7°C 75% 4.5 mph ENE7.2 kmh ENE 6.9 mph11.1 kmh 30.43 in1030.5 mb 0.00 in0.0 mm 0.00 in/hr0.0 mm/hr 0.00 in0.0 mm
08:50 AM 64.6°F18.1°C 56.5°F13.6°C 75% 3.1 mph ENE5.0 kmh ENE 6.0 mph9.7 kmh 30.43 in1030.5 mb 0.00 in0.0 mm 0.00 in/hr0.0 mm/hr 0.00 in0.0 mm
08:49 AM 64.0°F17.8°C 56.3°F13.5°C 76% 2.2 mph ENE3.5 kmh ENE 8.3 mph13.4 kmh 30.43 in1030.5 mb 0.00 in0.0 mm 0.00 in/hr0.0 mm/hr 0.00 in0.0 mm
08:48 AM 64.4°F18.0°C 56.7°F13.7°C 76% 3.1 mph ENE5.0 kmh ENE 8.3 mph13.4 kmh 30.43 in1030.5 mb 0.00 in0.0 mm 0.00 in/hr0.0 mm/hr 0.00 in0.0 mm
08:47 AM 64.4°F18.0°C 56.7°F13.7°C 76% 2.2 mph ENE3.5 kmh ENE 8.3 mph13.4 kmh 30.43 in1030.5 mb 0.00 in0.0 mm 0.00 in/hr0.0 mm/hr 0.00 in0.0 mm
08:46 AM 64.2°F17.9°C 56.5°F13.6°C 76% 3.1 mph ENE5.0 kmh ENE 8.3 mph13.4 kmh 30.43 in1030.5 mb 0.00 in0.0 mm 0.00 in/hr0.0 mm/hr 0.00 in0.0 mm
08:45 AM 64.2°F17.9°C 56.9°F13.8°C 77% 3.1 mph ENE5.0 kmh ENE 8.3 mph13.4 kmh 30.43 in1030.5 mb 0.00 in0.0 mm 0.00 in/hr0.0 mm/hr 0.00 in0.0 mm
08:44 AM 64.4°F18.0°C 56.7°F13.7°C 76% 3.1 mph ENE5.0 kmh ENE 8.3 mph13.4 kmh 30.43 in1030.5 mb 0.00 in0.0 mm 0.00 in/hr0.0 mm/hr 0.00 in0.0 mm
08:43 AM 64.0°F17.8°C 56.3°F13.5°C 76% 2.2 mph ENE3.5 kmh ENE 8.3 mph13.4 kmh 30.43 in1030.5 mb 0.00 in0.0 mm 0.00 in/hr0.0 mm/hr 0.00 in0.0 mm
08:42 AM 64.0°F17.8°C 56.0°F13.3°C 75% 3.8 mph ENE6.1 kmh ENE 8.3 mph13.4 kmh 30.43 in1030.5 mb 0.00 in0.0 mm 0.00 in/hr0.0 mm/hr 0.00 in0.0 mm
08:41 AM 64.2°F17.9°C 56.1°F13.4°C 75% 3.1 mph ENE5.0 kmh ENE 8.3 mph13.4 kmh 30.43 in1030.5 mb 0.00 in0.0 mm 0.00 in/hr0.0 mm/hr 0.00 in0.0 mm
08:40 AM 64.0°F17.8°C 56.0°F13.3°C 75% 2.2 mph ENE3.5 kmh ENE 8.3 mph13.4 kmh 30.43 in1030.5 mb 0.00 in0.0 mm 0.00 in/hr0.0 mm/hr 0.00 in0.0 mm
08:39 AM 64.2°F17.9°C 56.5°F13.6°C 76% 4.5 mph ENE7.2 kmh ENE 8.3 mph13.4 kmh 30.43 in1030.5 mb 0.00 in0.0 mm 0.00 in/hr0.0 mm/hr 0.00 in0.0 mm
08:38 AM 64.9°F18.3°C 56.8°F13.8°C 75% 5.4 mph ENE8.7 kmh ENE 8.3 mph13.4 kmh 30.42 in1030.1 mb 0.00 in0.0 mm 0.00 in/hr0.0 mm/hr 0.00 in0.0 mm
08:37 AM 64.8°F18.2°C 56.7°F13.7°C 75% 3.1 mph ENE5.0 kmh ENE 8.3 mph13.4 kmh 30.42 in1030.1 mb 0.00 in0.0 mm 0.00 in/hr0.0 mm/hr 0.00 in0.0 mm
08:36 AM 64.9°F18.3°C 57.2°F14.0°C 76% 0.7 mph ENE1.1 kmh ENE 8.3 mph13.4 kmh 30.42 in1030.1 mb 0.00 in0.0 mm 0.00 in/hr0.0 mm/hr 0.00 in0.0 mm
08:35 AM 64.9°F18.3°C 57.2°F14.0°C 76% 0.7 mph ENE1.1 kmh ENE 9.2 mph14.8 kmh 30.42 in1030.1 mb 0.00 in0.0 mm 0.00 in/hr0.0 mm/hr 0.00 in0.0 mm
08:34 AM 64.8°F18.2°C 57.4°F14.1°C 77% 1.6 mph ENE2.6 kmh ENE 9.2 mph14.8 kmh 30.42 in1030.1 mb 0.00 in0.0 mm 0.00 in/hr0.0 mm/hr 0.00 in0.0 mm
08:33 AM 63.9°F17.7°C 56.9°F13.8°C 78% 3.8 mph NE6.1 kmh NE 9.2 mph14.8 kmh 30.42 in1030.1 mb 0.00 in0.0 mm 0.00 in/hr0.0 mm/hr 0.00 in0.0 mm
08:32 AM 63.3°F17.4°C 56.0°F13.3°C 77% 2.2 mph NE3.5 kmh NE 9.2 mph14.8 kmh 30.42 in1030.1 mb 0.00 in0.0 mm 0.00 in/hr0.0 mm/hr 0.00 in0.0 mm
08:31 AM 63.1°F17.3°C 55.5°F13.1°C 76% 3.1 mph NE5.0 kmh NE 9.2 mph14.8 kmh 30.42 in1030.1 mb 0.00 in0.0 mm 0.00 in/hr0.0 mm/hr 0.00 in0.0 mm
08:30 AM 63.0°F17.2°C 55.7°F13.2°C 77% 3.1 mph NE5.0 kmh NE 9.2 mph14.8 kmh 30.42 in1030.1 mb 0.00 in0.0 mm 0.00 in/hr0.0 mm/hr 0.00 in0.0 mm
08:29 AM 63.1°F17.3°C 55.8°F13.2°C 77% 5.4 mph ENE8.7 kmh ENE 9.2 mph14.8 kmh 30.42 in1030.1 mb 0.00 in0.0 mm 0.00 in/hr0.0 mm/hr 0.00 in0.0 mm
08:28 AM 63.3°F17.4°C 56.0°F13.3°C 77% 3.8 mph ENE6.1 kmh ENE 9.2 mph14.8 kmh 30.42 in1030.1 mb 0.00 in0.0 mm 0.00 in/hr0.0 mm/hr 0.00 in0.0 mm
08:27 AM 63.1°F17.3°C 55.8°F13.2°C 77% 3.8 mph ENE6.1 kmh ENE 9.2 mph14.8 kmh 30.42 in1030.1 mb 0.00 in0.0 mm 0.00 in/hr0.0 mm/hr 0.00 in0.0 mm
08:26 AM 63.1°F17.3°C 55.8°F13.2°C 77% 4.5 mph ENE7.2 kmh ENE 9.2 mph14.8 kmh 30.42 in1030.1 mb 0.00 in0.0 mm 0.00 in/hr0.0 mm/hr 0.00 in0.0 mm
08:25 AM 63.1°F17.3°C 56.2°F13.4°C 78% 2.2 mph ENE3.5 kmh ENE 8.3 mph13.4 kmh 30.42 in1030.1 mb 0.00 in0.0 mm 0.00 in/hr0.0 mm/hr 0.00 in0.0 mm
08:24 AM 63.0°F17.2°C 55.7°F13.2°C 77% 1.6 mph ENE2.6 kmh ENE 8.3 mph13.4 kmh 30.42 in1030.1 mb 0.00 in0.0 mm 0.00 in/hr0.0 mm/hr 0.00 in0.0 mm
08:23 AM 62.6°F17.0°C 55.3°F12.9°C 77% 3.8 mph ENE6.1 kmh ENE 8.3 mph13.4 kmh 30.42 in1030.1 mb 0.00 in0.0 mm 0.00 in/hr0.0 mm/hr 0.00 in0.0 mm
08:22 AM 63.1°F17.3°C 55.8°F13.2°C 77% 5.4 mph ENE8.7 kmh ENE 8.3 mph13.4 kmh 30.42 in1030.1 mb 0.00 in0.0 mm 0.00 in/hr0.0 mm/hr 0.00 in0.0 mm
08:21 AM 62.8°F17.1°C 56.5°F13.6°C 80% 3.8 mph ENE6.1 kmh ENE 8.3 mph13.4 kmh 30.42 in1030.1 mb 0.00 in0.0 mm 0.00 in/hr0.0 mm/hr 0.00 in0.0 mm
08:20 AM 63.0°F17.2°C 56.7°F13.7°C 80% 5.4 mph ENE8.7 kmh ENE 8.3 mph13.4 kmh 30.42 in1030.1 mb 0.00 in0.0 mm 0.00 in/hr0.0 mm/hr 0.00 in0.0 mm
08:19 AM 63.0°F17.2°C 56.7°F13.7°C 80% 5.4 mph ENE8.7 kmh ENE 8.3 mph13.4 kmh 30.42 in1030.1 mb 0.00 in0.0 mm 0.00 in/hr0.0 mm/hr 0.00 in0.0 mm
08:18 AM 63.0°F17.2°C 56.7°F13.7°C 80% 5.4 mph ENE8.7 kmh ENE 8.3 mph13.4 kmh 30.42 in1030.1 mb 0.00 in0.0 mm 0.00 in/hr0.0 mm/hr 0.00 in0.0 mm
08:17 AM 63.0°F17.2°C 56.7°F13.7°C 80% 5.4 mph ENE8.7 kmh ENE 8.3 mph13.4 kmh 30.42 in1030.1 mb 0.00 in0.0 mm 0.00 in/hr0.0 mm/hr 0.00 in0.0 mm
08:16 AM 63.0°F17.2°C 56.7°F13.7°C 80% 5.4 mph ENE8.7 kmh ENE 8.3 mph13.4 kmh 30.42 in1030.1 mb 0.00 in0.0 mm 0.00 in/hr0.0 mm/hr 0.00 in0.0 mm
08:15 AM 63.0°F17.2°C 56.7°F13.7°C 80% 5.4 mph ENE8.7 kmh ENE 8.3 mph13.4 kmh 30.42 in1030.1 mb 0.00 in0.0 mm 0.00 in/hr0.0 mm/hr 0.00 in0.0 mm
08:14 AM 63.0°F17.2°C 56.7°F13.7°C 80% 3.8 mph ENE6.1 kmh ENE 6.0 mph9.7 kmh 30.42 in1030.1 mb 0.00 in0.0 mm 0.00 in/hr0.0 mm/hr 0.00 in0.0 mm
08:13 AM 62.6°F17.0°C 56.4°F13.6°C 80% 3.8 mph ENE6.1 kmh ENE 6.0 mph9.7 kmh 30.42 in1030.1 mb 0.00 in0.0 mm 0.00 in/hr0.0 mm/hr 0.00 in0.0 mm
08:12 AM 62.6°F17.0°C 56.7°F13.7°C 81% 3.1 mph ENE5.0 kmh ENE 6.0 mph9.7 kmh 30.42 in1030.1 mb 0.00 in0.0 mm 0.00 in/hr0.0 mm/hr 0.00 in0.0 mm
08:11 AM 62.4°F16.9°C 57.2°F14.0°C 83% 3.1 mph ENE5.0 kmh ENE 6.9 mph11.1 kmh 30.42 in1030.1 mb 0.00 in0.0 mm 0.00 in/hr0.0 mm/hr 0.00 in0.0 mm
08:10 AM 62.2°F16.8°C 57.0°F13.9°C 83% 2.2 mph ENE3.5 kmh ENE 6.9 mph11.1 kmh 30.42 in1030.1 mb 0.00 in0.0 mm 0.00 in/hr0.0 mm/hr 0.00 in0.0 mm
08:09 AM 62.2°F16.8°C 57.7°F14.3°C 85% 3.1 mph ENE5.0 kmh ENE 6.9 mph11.1 kmh 30.42 in1030.1 mb 0.00 in0.0 mm 0.00 in/hr0.0 mm/hr 0.00 in0.0 mm
08:08 AM 62.1°F16.7°C 57.5°F14.2°C 85% 2.2 mph ENE3.5 kmh ENE 6.9 mph11.1 kmh 30.42 in1030.1 mb 0.00 in0.0 mm 0.00 in/hr0.0 mm/hr 0.00 in0.0 mm
08:07 AM 61.9°F16.6°C 57.3°F14.1°C 85% 3.1 mph ENE5.0 kmh ENE 6.9 mph11.1 kmh 30.42 in1030.1 mb 0.00 in0.0 mm 0.00 in/hr0.0 mm/hr 0.00 in0.0 mm
08:06 AM 61.7°F16.5°C 57.2°F14.0°C 85% 3.1 mph ENE5.0 kmh ENE 6.9 mph11.1 kmh 30.41 in1029.8 mb 0.00 in0.0 mm 0.00 in/hr0.0 mm/hr 0.00 in0.0 mm
08:05 AM 61.5°F16.4°C 57.0°F13.9°C 85% 3.1 mph ENE5.0 kmh ENE 6.9 mph11.1 kmh 30.41 in1029.8 mb 0.00 in0.0 mm 0.00 in/hr0.0 mm/hr 0.00 in0.0 mm
08:04 AM 61.3°F16.3°C 56.1°F13.4°C 83% 3.1 mph ENE5.0 kmh ENE 6.9 mph11.1 kmh 30.42 in1030.1 mb 0.00 in0.0 mm 0.00 in/hr0.0 mm/hr 0.00 in0.0 mm
08:03 AM 61.3°F16.3°C 56.1°F13.4°C 83% 3.1 mph ENE5.0 kmh ENE 6.9 mph11.1 kmh 30.41 in1029.8 mb 0.00 in0.0 mm 0.00 in/hr0.0 mm/hr 0.00 in0.0 mm
08:02 AM 61.3°F16.3°C 56.8°F13.8°C 85% 3.1 mph ENE5.0 kmh ENE 6.9 mph11.1 kmh 30.42 in1030.1 mb 0.00 in0.0 mm 0.00 in/hr0.0 mm/hr 0.00 in0.0 mm
08:01 AM 61.5°F16.4°C 57.0°F13.9°C 85% 4.5 mph ENE7.2 kmh ENE 6.9 mph11.1 kmh 30.41 in1029.8 mb 0.00 in0.0 mm 0.00 in/hr0.0 mm/hr 0.00 in0.0 mm
08:00 AM 61.5°F16.4°C 57.0°F13.9°C 85% 3.1 mph ENE5.0 kmh ENE 5.4 mph8.7 kmh 30.41 in1029.8 mb 0.00 in0.0 mm 0.00 in/hr0.0 mm/hr 0.00 in0.0 mm
07:59 AM 61.5°F16.4°C 57.0°F13.9°C 85% 3.1 mph ENE5.0 kmh ENE 5.4 mph8.7 kmh 30.42 in1030.1 mb 0.00 in0.0 mm 0.00 in/hr0.0 mm/hr 0.00 in0.0 mm
07:58 AM 61.0°F16.1°C 56.5°F13.6°C 85% 2.2 mph ENE3.5 kmh ENE 5.4 mph8.7 kmh 30.41 in1029.8 mb 0.00 in0.0 mm 0.00 in/hr0.0 mm/hr 0.00 in0.0 mm
07:57 AM 61.5°F16.4°C 57.3°F14.1°C 86% 3.1 mph ENE5.0 kmh ENE 5.4 mph8.7 kmh 30.41 in1029.8 mb 0.00 in0.0 mm 0.00 in/hr0.0 mm/hr 0.00 in0.0 mm
07:56 AM 60.8°F16.0°C 56.3°F13.5°C 85% 1.6 mph NE2.6 kmh NE 5.4 mph8.7 kmh 30.41 in1029.8 mb 0.00 in0.0 mm 0.00 in/hr0.0 mm/hr 0.00 in0.0 mm
07:55 AM 61.0°F16.1°C 56.8°F13.8°C 86% 3.1 mph NE5.0 kmh NE 5.4 mph8.7 kmh 30.41 in1029.8 mb 0.00 in0.0 mm 0.00 in/hr0.0 mm/hr 0.00 in0.0 mm
07:54 AM 60.8°F16.0°C 56.6°F13.7°C 86% 1.6 mph NE2.6 kmh NE 6.0 mph9.7 kmh 30.42 in1030.1 mb 0.00 in0.0 mm 0.00 in/hr0.0 mm/hr 0.00 in0.0 mm
07:53 AM 61.0°F16.1°C 56.8°F13.8°C 86% 1.6 mph NNE2.6 kmh NNE 6.0 mph9.7 kmh 30.42 in1030.1 mb 0.00 in0.0 mm 0.00 in/hr0.0 mm/hr 0.00 in0.0 mm
07:52 AM 61.0°F16.1°C 56.8°F13.8°C 86% 0.7 mph NNE1.1 kmh NNE 6.0 mph9.7 kmh 30.41 in1029.8 mb 0.00 in0.0 mm 0.00 in/hr0.0 mm/hr 0.00 in0.0 mm
07:51 AM 60.8°F16.0°C 56.6°F13.7°C 86% 0.7 mph NNE1.1 kmh NNE 6.0 mph9.7 kmh 30.41 in1029.8 mb 0.00 in0.0 mm 0.00 in/hr0.0 mm/hr 0.00 in0.0 mm
07:50 AM 60.8°F16.0°C 56.6°F13.7°C 86% 0.7 mph NNE1.1 kmh NNE 6.0 mph9.7 kmh 30.42 in1030.1 mb 0.00 in0.0 mm 0.00 in/hr0.0 mm/hr 0.00 in0.0 mm
07:49 AM 60.6°F15.9°C 56.7°F13.7°C 87% 0.7 mph NNE1.1 kmh NNE 6.0 mph9.7 kmh 30.41 in1029.8 mb 0.00 in0.0 mm 0.00 in/hr0.0 mm/hr 0.00 in0.0 mm
07:48 AM 60.8°F16.0°C 56.9°F13.8°C 87% 1.6 mph NNE2.6 kmh NNE 6.0 mph9.7 kmh 30.41 in1029.8 mb 0.00 in0.0 mm 0.00 in/hr0.0 mm/hr 0.00 in0.0 mm
07:47 AM 60.6°F15.9°C 57.1°F13.9°C 88% 0.7 mph NNE1.1 kmh NNE 6.0 mph9.7 kmh 30.41 in1029.8 mb 0.00 in0.0 mm 0.00 in/hr0.0 mm/hr 0.00 in0.0 mm
07:46 AM 60.3°F15.7°C 56.4°F13.6°C 87% 1.6 mph NNE2.6 kmh NNE 6.0 mph9.7 kmh 30.41 in1029.8 mb 0.00 in0.0 mm 0.00 in/hr0.0 mm/hr 0.00 in0.0 mm
07:45 AM 60.6°F15.9°C 57.1°F13.9°C 88% 3.8 mph NNE6.1 kmh NNE 6.0 mph9.7 kmh 30.41 in1029.8 mb 0.00 in0.0 mm 0.00 in/hr0.0 mm/hr 0.00 in0.0 mm
07:44 AM 60.6°F15.9°C 57.7°F14.3°C 90% 1.6 mph NNE2.6 kmh NNE 5.4 mph8.7 kmh 30.41 in1029.8 mb 0.00 in0.0 mm 0.00 in/hr0.0 mm/hr 0.00 in0.0 mm
07:43 AM 60.6°F15.9°C 57.7°F14.3°C 90% 1.6 mph N2.6 kmh N 5.4 mph8.7 kmh 30.41 in1029.8 mb 0.00 in0.0 mm 0.00 in/hr0.0 mm/hr 0.00 in0.0 mm
07:42 AM 60.4°F15.8°C 57.5°F14.2°C 90% 0.7 mph N1.1 kmh N 5.4 mph8.7 kmh 30.42 in1030.1 mb 0.00 in0.0 mm 0.00 in/hr0.0 mm/hr 0.00 in0.0 mm
07:41 AM 60.4°F15.8°C 57.5°F14.2°C 90% 0.7 mph N1.1 kmh N 5.4 mph8.7 kmh 30.41 in1029.8 mb 0.00 in0.0 mm 0.00 in/hr0.0 mm/hr 0.00 in0.0 mm
07:40 AM 60.1°F15.6°C 57.2°F14.0°C 90% Calm Calm 5.4 mph8.7 kmh 30.41 in1029.8 mb 0.00 in0.0 mm 0.00 in/hr0.0 mm/hr 0.00 in0.0 mm
07:39 AM 60.1°F15.6°C 57.2°F14.0°C 90% 1.6 mph N2.6 kmh N 5.4 mph8.7 kmh 30.41 in1029.8 mb 0.00 in0.0 mm 0.00 in/hr0.0 mm/hr 0.00 in0.0 mm
07:38 AM 60.1°F15.6°C 57.2°F14.0°C 90% 0.7 mph N1.1 kmh N 5.4 mph8.7 kmh 30.41 in1029.8 mb 0.00 in0.0 mm 0.00 in/hr0.0 mm/hr 0.00 in0.0 mm
07:37 AM 60.1°F15.6°C 57.2°F14.0°C 90% Calm Calm 5.4 mph8.7 kmh 30.41 in1029.8 mb 0.00 in0.0 mm 0.00 in/hr0.0 mm/hr 0.00 in0.0 mm
07:36 AM 59.7°F15.4°C 56.8°F13.8°C 90% 1.6 mph NE2.6 kmh NE 5.4 mph8.7 kmh 30.41 in1029.8 mb 0.00 in0.0 mm 0.00 in/hr0.0 mm/hr 0.00 in0.0 mm
07:35 AM 59.5°F15.3°C 56.6°F13.7°C 90% 2.2 mph NE3.5 kmh NE 6.0 mph9.7 kmh 30.42 in1030.1 mb 0.00 in0.0 mm 0.00 in/hr0.0 mm/hr 0.00 in0.0 mm
07:34 AM 59.5°F15.3°C 56.6°F13.7°C 90% 1.6 mph NE2.6 kmh NE 6.0 mph9.7 kmh 30.41 in1029.8 mb 0.00 in0.0 mm 0.00 in/hr0.0 mm/hr 0.00 in0.0 mm
07:33 AM 59.5°F15.3°C 56.9°F13.8°C 91% 3.8 mph NE6.1 kmh NE 6.0 mph9.7 kmh 30.41 in1029.8 mb 0.00 in0.0 mm 0.00 in/hr0.0 mm/hr 0.00 in0.0 mm
07:32 AM 59.7°F15.4°C 57.1°F13.9°C 91% 1.6 mph NE2.6 kmh NE 6.0 mph9.7 kmh 30.42 in1030.1 mb 0.00 in0.0 mm 0.00 in/hr0.0 mm/hr 0.00 in0.0 mm
07:31 AM 59.7°F15.4°C 57.1°F13.9°C 91% 0.7 mph ENE1.1 kmh ENE 6.0 mph9.7 kmh 30.41 in1029.8 mb 0.00 in0.0 mm 0.00 in/hr0.0 mm/hr 0.00 in0.0 mm
07:30 AM 59.5°F15.3°C 56.9°F13.8°C 91% 1.6 mph ENE2.6 kmh ENE 6.0 mph9.7 kmh 30.41 in1029.8 mb 0.00 in0.0 mm 0.00 in/hr0.0 mm/hr 0.00 in0.0 mm
07:29 AM 59.5°F15.3°C 56.9°F13.8°C 91% 3.1 mph ENE5.0 kmh ENE 6.0 mph9.7 kmh 30.41 in1029.8 mb 0.00 in0.0 mm 0.00 in/hr0.0 mm/hr 0.00 in0.0 mm
07:28 AM 59.7°F15.4°C 57.4°F14.1°C 92% 3.1 mph ENE5.0 kmh ENE 6.0 mph9.7 kmh 30.41 in1029.8 mb 0.00 in0.0 mm 0.00 in/hr0.0 mm/hr 0.00 in0.0 mm
07:27 AM 59.5°F15.3°C 56.9°F13.8°C 91% 2.2 mph ENE3.5 kmh ENE 6.0 mph9.7 kmh 30.41 in1029.8 mb 0.00 in0.0 mm 0.00 in/hr0.0 mm/hr 0.00 in0.0 mm
07:26 AM 59.5°F15.3°C 57.2°F14.0°C 92% 3.1 mph ENE5.0 kmh ENE 6.0 mph9.7 kmh 30.41 in1029.8 mb 0.00 in0.0 mm 0.00 in/hr0.0 mm/hr 0.00 in0.0 mm
07:25 AM 59.4°F15.2°C 57.0°F13.9°C 92% 3.8 mph ENE6.1 kmh ENE 6.0 mph9.7 kmh 30.41 in1029.8 mb 0.00 in0.0 mm 0.00 in/hr0.0 mm/hr 0.00 in0.0 mm
07:24 AM 59.5°F15.3°C 57.2°F14.0°C 92% 3.8 mph ENE6.1 kmh ENE 6.0 mph9.7 kmh 30.41 in1029.8 mb 0.00 in0.0 mm 0.00 in/hr0.0 mm/hr 0.00 in0.0 mm
07:23 AM 59.4°F15.2°C 57.0°F13.9°C 92% 3.1 mph NE5.0 kmh NE 6.0 mph9.7 kmh 30.41 in1029.8 mb 0.00 in0.0 mm 0.00 in/hr0.0 mm/hr 0.00 in0.0 mm
07:22 AM 59.2°F15.1°C 56.9°F13.8°C 92% 3.1 mph NE5.0 kmh NE 6.0 mph9.7 kmh 30.41 in1029.8 mb 0.00 in0.0 mm 0.00 in/hr0.0 mm/hr 0.00 in0.0 mm
07:21 AM 59.2°F15.1°C 57.2°F14.0°C 93% 4.5 mph NE7.2 kmh NE 6.0 mph9.7 kmh 30.41 in1029.8 mb 0.00 in0.0 mm 0.00 in/hr0.0 mm/hr 0.00 in0.0 mm
07:20 AM 59.0°F15.0°C 57.0°F13.9°C 93% 3.8 mph NE6.1 kmh NE 5.4 mph8.7 kmh 30.41 in1029.8 mb 0.00 in0.0 mm 0.00 in/hr0.0 mm/hr 0.00 in0.0 mm
07:19 AM 59.0°F15.0°C 57.0°F13.9°C 93% 2.2 mph NE3.5 kmh NE 3.8 mph6.1 kmh 30.41 in1029.8 mb 0.00 in0.0 mm 0.00 in/hr0.0 mm/hr 0.00 in0.0 mm
07:18 AM 59.0°F15.0°C 57.0°F13.9°C 93% 2.2 mph NNE3.5 kmh NNE 3.1 mph5.0 kmh 30.41 in1029.8 mb 0.00 in0.0 mm 0.00 in/hr0.0 mm/hr 0.00 in0.0 mm
07:17 AM 58.8°F14.9°C 57.7°F14.3°C 96% 0.7 mph N1.1 kmh N 3.1 mph5.0 kmh 30.41 in1029.8 mb 0.00 in0.0 mm 0.00 in/hr0.0 mm/hr 0.00 in0.0 mm
07:16 AM 58.8°F14.9°C 57.7°F14.3°C 96% 0.7 mph N1.1 kmh N 3.1 mph5.0 kmh 30.41 in1029.8 mb 0.00 in0.0 mm 0.00 in/hr0.0 mm/hr 0.00 in0.0 mm
07:15 AM 58.5°F14.7°C 57.3°F14.1°C 96% 0.7 mph N1.1 kmh N 3.1 mph5.0 kmh 30.41 in1029.8 mb 0.00 in0.0 mm 0.00 in/hr0.0 mm/hr 0.00 in0.0 mm
07:14 AM 58.5°F14.7°C 57.3°F14.1°C 96% 0.7 mph NNE1.1 kmh NNE 3.1 mph5.0 kmh 30.41 in1029.8 mb 0.00 in0.0 mm 0.00 in/hr0.0 mm/hr 0.00 in0.0 mm
07:13 AM 57.9°F14.4°C 56.8°F13.8°C 96% 0.7 mph NNE1.1 kmh NNE 3.1 mph5.0 kmh 30.41 in1029.8 mb 0.00 in0.0 mm 0.00 in/hr0.0 mm/hr 0.00 in0.0 mm
07:12 AM 57.9°F14.4°C 56.8°F13.8°C 96% Calm Calm 3.1 mph5.0 kmh 30.41 in1029.8 mb 0.00 in0.0 mm 0.00 in/hr0.0 mm/hr 0.00 in0.0 mm
07:11 AM 57.9°F14.4°C 56.8°F13.8°C 96% 0.7 mph NNE1.1 kmh NNE 3.1 mph5.0 kmh 30.40 in1029.5 mb 0.00 in0.0 mm 0.00 in/hr0.0 mm/hr 0.00 in0.0 mm
07:10 AM 57.9°F14.4°C 56.8°F13.8°C 96% 1.6 mph N2.6 kmh N 3.1 mph5.0 kmh 30.41 in1029.8 mb 0.00 in0.0 mm 0.00 in/hr0.0 mm/hr 0.00 in0.0 mm
07:09 AM 57.7°F14.3°C 56.9°F13.8°C 97% 1.6 mph N2.6 kmh N 3.1 mph5.0 kmh 30.40 in1029.5 mb 0.00 in0.0 mm 0.00 in/hr0.0 mm/hr 0.00 in0.0 mm
07:08 AM 57.6°F14.2°C 56.7°F13.7°C 97% 0.7 mph N1.1 kmh N 2.2 mph3.5 kmh 30.40 in1029.5 mb 0.00 in0.0 mm 0.00 in/hr0.0 mm/hr 0.00 in0.0 mm
07:07 AM 57.6°F14.2°C 56.7°F13.7°C 97% 0.7 mph NNE1.1 kmh NNE 1.6 mph2.6 kmh 30.40 in1029.5 mb 0.00 in0.0 mm 0.00 in/hr0.0 mm/hr 0.00 in0.0 mm
07:06 AM 57.4°F14.1°C 56.5°F13.6°C 97% Calm Calm 0.7 mph1.1 kmh 30.40 in1029.5 mb 0.00 in0.0 mm 0.00 in/hr0.0 mm/hr 0.00 in0.0 mm
07:05 AM 57.4°F14.1°C 56.5°F13.6°C 97% Calm Calm 0.7 mph1.1 kmh 30.40 in1029.5 mb 0.00 in0.0 mm 0.00 in/hr0.0 mm/hr 0.00 in0.0 mm
07:04 AM 57.4°F14.1°C 56.5°F13.6°C 97% Calm Calm 0.7 mph1.1 kmh 30.40 in1029.5 mb 0.00 in0.0 mm 0.00 in/hr0.0 mm/hr 0.00 in0.0 mm
07:03 AM 57.2°F14.0°C 56.4°F13.6°C 97% Calm Calm 0.7 mph1.1 kmh 30.40 in1029.5 mb 0.00 in0.0 mm 0.00 in/hr0.0 mm/hr 0.00 in0.0 mm
07:02 AM 57.2°F14.0°C 56.4°F13.6°C 97% Calm Calm 2.2 mph3.5 kmh 30.40 in1029.5 mb 0.00 in0.0 mm 0.00 in/hr0.0 mm/hr 0.00 in0.0 mm
07:01 AM 57.2°F14.0°C 56.4°F13.6°C 97% Calm Calm 2.2 mph3.5 kmh 30.40 in1029.5 mb 0.00 in0.0 mm 0.00 in/hr0.0 mm/hr 0.00 in0.0 mm
07:00 AM 57.2°F14.0°C 56.4°F13.6°C 97% Calm Calm 2.2 mph3.5 kmh 30.40 in1029.5 mb 0.00 in0.0 mm 0.00 in/hr0.0 mm/hr 0.00 in0.0 mm
06:59 AM 57.0°F13.9°C 56.5°F13.6°C 98% Calm Calm 2.2 mph3.5 kmh 30.40 in1029.5 mb 0.00 in0.0 mm 0.00 in/hr0.0 mm/hr 0.00 in0.0 mm
06:58 AM 57.0°F13.9°C 56.5°F13.6°C 98% Calm Calm 2.2 mph3.5 kmh 30.39 in1029.1 mb 0.00 in0.0 mm 0.00 in/hr0.0 mm/hr 0.00 in0.0 mm
06:57 AM 57.0°F13.9°C 56.5°F13.6°C 98% Calm Calm 2.2 mph3.5 kmh 30.40 in1029.5 mb 0.00 in0.0 mm 0.00 in/hr0.0 mm/hr 0.00 in0.0 mm
06:56 AM 57.0°F13.9°C 56.5°F13.6°C 98% Calm Calm 2.2 mph3.5 kmh 30.40 in1029.5 mb 0.00 in0.0 mm 0.00 in/hr0.0 mm/hr 0.00 in0.0 mm
06:55 AM 57.0°F13.9°C 56.5°F13.6°C 98% Calm Calm 2.2 mph3.5 kmh 30.40 in1029.5 mb 0.00 in0.0 mm 0.00 in/hr0.0 mm/hr 0.00 in0.0 mm
06:54 AM 57.0°F13.9°C 56.5°F13.6°C 98% Calm Calm 2.2 mph3.5 kmh 30.40 in1029.5 mb 0.00 in0.0 mm 0.00 in/hr0.0 mm/hr 0.00 in0.0 mm
06:53 AM 56.8°F13.8°C 56.3°F13.5°C 98% Calm Calm 2.2 mph3.5 kmh 30.40 in1029.5 mb 0.00 in0.0 mm 0.00 in/hr0.0 mm/hr 0.00 in0.0 mm
06:52 AM 56.8°F13.8°C 56.3°F13.5°C 98% 0.7 mph NE1.1 kmh NE 2.2 mph3.5 kmh 30.40 in1029.5 mb 0.00 in0.0 mm 0.00 in/hr0.0 mm/hr 0.00 in0.0 mm
06:51 AM 56.8°F13.8°C 56.3°F13.5°C 98% 0.7 mph NE1.1 kmh NE 2.2 mph3.5 kmh 30.40 in1029.5 mb 0.00 in0.0 mm 0.00 in/hr0.0 mm/hr 0.00 in0.0 mm
06:50 AM 56.7°F13.7°C 56.1°F13.4°C 98% 1.6 mph NE2.6 kmh NE 2.2 mph3.5 kmh 30.40 in1029.5 mb 0.00 in0.0 mm 0.00 in/hr0.0 mm/hr 0.00 in0.0 mm
06:49 AM 56.8°F13.8°C 56.3°F13.5°C 98% 0.7 mph NE1.1 kmh NE 2.2 mph3.5 kmh 30.40 in1029.5 mb 0.00 in0.0 mm 0.00 in/hr0.0 mm/hr 0.00 in0.0 mm
06:48 AM 56.7°F13.7°C 56.7°F13.7°C 100% 0.7 mph NNE1.1 kmh NNE 2.2 mph3.5 kmh 30.40 in1029.5 mb 0.00 in0.0 mm 0.00 in/hr0.0 mm/hr 0.00 in0.0 mm
06:47 AM 56.7°F13.7°C 56.7°F13.7°C 100% 1.6 mph NE2.6 kmh NE 2.2 mph3.5 kmh 30.40 in1029.5 mb 0.00 in0.0 mm 0.00 in/hr0.0 mm/hr 0.00 in0.0 mm
06:46 AM 56.7°F13.7°C 56.7°F13.7°C 100% Calm Calm 1.6 mph2.6 kmh 30.40 in1029.5 mb 0.00 in0.0 mm 0.00 in/hr0.0 mm/hr 0.00 in0.0 mm
06:45 AM 56.7°F13.7°C 56.7°F13.7°C 100% Calm Calm 3.1 mph5.0 kmh 30.40 in1029.5 mb 0.00 in0.0 mm 0.00 in/hr0.0 mm/hr 0.00 in0.0 mm
06:44 AM 56.7°F13.7°C 56.7°F13.7°C 100% Calm Calm 3.1 mph5.0 kmh 30.40 in1029.5 mb 0.00 in0.0 mm 0.00 in/hr0.0 mm/hr 0.00 in0.0 mm
06:43 AM 56.7°F13.7°C 56.7°F13.7°C 100% 0.7 mph N1.1 kmh N 3.1 mph5.0 kmh 30.40 in1029.5 mb 0.00 in0.0 mm 0.00 in/hr0.0 mm/hr 0.00 in0.0 mm
06:42 AM 56.7°F13.7°C 56.7°F13.7°C 100% Calm Calm 3.1 mph5.0 kmh 30.40 in1029.5 mb 0.00 in0.0 mm 0.00 in/hr0.0 mm/hr 0.00 in0.0 mm
06:41 AM 56.7°F13.7°C 56.7°F13.7°C 100% Calm Calm 3.1 mph5.0 kmh 30.39 in1029.1 mb 0.00 in0.0 mm 0.00 in/hr0.0 mm/hr 0.00 in0.0 mm
06:40 AM 56.7°F13.7°C 56.7°F13.7°C 100% Calm Calm 3.1 mph5.0 kmh 30.40 in1029.5 mb 0.00 in0.0 mm 0.00 in/hr0.0 mm/hr 0.00 in0.0 mm
06:39 AM 56.7°F13.7°C 56.7°F13.7°C 100% Calm Calm 3.1 mph5.0 kmh 30.39 in1029.1 mb 0.00 in0.0 mm 0.00 in/hr0.0 mm/hr 0.00 in0.0 mm
06:38 AM 56.7°F13.7°C 56.7°F13.7°C 100% Calm Calm 3.8 mph6.1 kmh 30.39 in1029.1 mb 0.00 in0.0 mm 0.00 in/hr0.0 mm/hr 0.00 in0.0 mm
06:37 AM 56.7°F13.7°C 56.1°F13.4°C 98% Calm Calm 3.8 mph6.1 kmh 30.39 in1029.1 mb 0.00 in0.0 mm 0.00 in/hr0.0 mm/hr 0.00 in0.0 mm
06:36 AM 56.7°F13.7°C 56.1°F13.4°C 98% Calm Calm 3.8 mph6.1 kmh 30.39 in1029.1 mb 0.00 in0.0 mm 0.00 in/hr0.0 mm/hr 0.00 in0.0 mm
06:35 AM 56.7°F13.7°C 56.1°F13.4°C 98% 1.6 mph N2.6 kmh N 3.8 mph6.1 kmh 30.39 in1029.1 mb 0.00 in0.0 mm 0.00 in/hr0.0 mm/hr 0.00 in0.0 mm
06:34 AM 56.7°F13.7°C 56.1°F13.4°C 98% 0.7 mph N1.1 kmh N 3.8 mph6.1 kmh 30.39 in1029.1 mb 0.00 in0.0 mm 0.00 in/hr0.0 mm/hr 0.00 in0.0 mm
06:33 AM 56.7°F13.7°C 56.1°F13.4°C 98% 0.7 mph N1.1 kmh N 3.8 mph6.1 kmh 30.39 in1029.1 mb 0.00 in0.0 mm 0.00 in/hr0.0 mm/hr 0.00 in0.0 mm
06:32 AM 56.7°F13.7°C 56.1°F13.4°C 98% 0.7 mph NNE1.1 kmh NNE 3.8 mph6.1 kmh 30.39 in1029.1 mb 0.00 in0.0 mm 0.00 in/hr0.0 mm/hr 0.00 in0.0 mm
06:31 AM 56.7°F13.7°C 56.1°F13.4°C 98% 0.7 mph NNE1.1 kmh NNE 3.8 mph6.1 kmh 30.40 in1029.5 mb 0.00 in0.0 mm 0.00 in/hr0.0 mm/hr 0.00 in0.0 mm
06:30 AM 56.7°F13.7°C 56.1°F13.4°C 98% 1.6 mph NNE2.6 kmh NNE 3.8 mph6.1 kmh 30.39 in1029.1 mb 0.00 in0.0 mm 0.00 in/hr0.0 mm/hr 0.00 in0.0 mm
06:29 AM 56.7°F13.7°C 56.1°F13.4°C 98% 1.6 mph N2.6 kmh N 3.8 mph6.1 kmh 30.39 in1029.1 mb 0.00 in0.0 mm 0.00 in/hr0.0 mm/hr 0.00 in0.0 mm
06:28 AM 56.7°F13.7°C 56.1°F13.4°C 98% 2.2 mph N3.5 kmh N 3.8 mph6.1 kmh 30.39 in1029.1 mb 0.00 in0.0 mm 0.00 in/hr0.0 mm/hr 0.00 in0.0 mm
06:27 AM 56.7°F13.7°C 56.1°F13.4°C 98% 0.7 mph N1.1 kmh N 3.1 mph5.0 kmh 30.39 in1029.1 mb 0.00 in0.0 mm 0.00 in/hr0.0 mm/hr 0.00 in0.0 mm
06:26 AM 56.7°F13.7°C 56.1°F13.4°C 98% Calm Calm 3.1 mph5.0 kmh 30.39 in1029.1 mb 0.00 in0.0 mm 0.00 in/hr0.0 mm/hr 0.00 in0.0 mm
06:25 AM 56.7°F13.7°C 56.1°F13.4°C 98% 0.7 mph N1.1 kmh N 3.1 mph5.0 kmh 30.39 in1029.1 mb 0.00 in0.0 mm 0.00 in/hr0.0 mm/hr 0.00 in0.0 mm
06:24 AM 56.7°F13.7°C 56.1°F13.4°C 98% 0.7 mph N1.1 kmh N 3.1 mph5.0 kmh 30.39 in1029.1 mb 0.00 in0.0 mm 0.00 in/hr0.0 mm/hr 0.00 in0.0 mm
06:23 AM 56.7°F13.7°C 56.1°F13.4°C 98% 1.6 mph N2.6 kmh N 3.1 mph5.0 kmh 30.39 in1029.1 mb 0.00 in0.0 mm 0.00 in/hr0.0 mm/hr 0.00 in0.0 mm
06:22 AM 56.7°F13.7°C 56.1°F13.4°C 98% Calm Calm 3.8 mph6.1 kmh 30.39 in1029.1 mb 0.00 in0.0 mm 0.00 in/hr0.0 mm/hr 0.00 in0.0 mm
06:21 AM 56.7°F13.7°C 55.8°F13.2°C 97% Calm Calm 3.8 mph6.1 kmh 30.39 in1029.1 mb 0.00 in0.0 mm 0.00 in/hr0.0 mm/hr 0.00 in0.0 mm
06:20 AM 56.7°F13.7°C 55.8°F13.2°C 97% 0.7 mph N1.1 kmh N 3.8 mph6.1 kmh 30.39 in1029.1 mb 0.00 in0.0 mm 0.00 in/hr0.0 mm/hr 0.00 in0.0 mm
06:19 AM 56.7°F13.7°C 55.8°F13.2°C 97% 0.7 mph N1.1 kmh N 4.5 mph7.2 kmh 30.39 in1029.1 mb 0.00 in0.0 mm 0.00 in/hr0.0 mm/hr 0.00 in0.0 mm
06:18 AM 56.7°F13.7°C 55.8°F13.2°C 97% 0.7 mph N1.1 kmh N 4.5 mph7.2 kmh 30.39 in1029.1 mb 0.00 in0.0 mm 0.00 in/hr0.0 mm/hr 0.00 in0.0 mm
06:17 AM 56.7°F13.7°C 55.8°F13.2°C 97% 0.7 mph N1.1 kmh N 4.5 mph7.2 kmh 30.39 in1029.1 mb 0.00 in0.0 mm 0.00 in/hr0.0 mm/hr 0.00 in0.0 mm
06:16 AM 56.7°F13.7°C 55.8°F13.2°C 97% 0.7 mph N1.1 kmh N 4.5 mph7.2 kmh 30.39 in1029.1 mb 0.00 in0.0 mm 0.00 in/hr0.0 mm/hr 0.00 in0.0 mm
06:15 AM 56.7°F13.7°C 55.8°F13.2°C 97% 0.7 mph N1.1 kmh N 4.5 mph7.2 kmh 30.39 in1029.1 mb 0.00 in0.0 mm 0.00 in/hr0.0 mm/hr 0.00 in0.0 mm
06:14 AM 56.8°F13.8°C 56.0°F13.3°C 97% 0.7 mph N1.1 kmh N 4.5 mph7.2 kmh 30.39 in1029.1 mb 0.00 in0.0 mm 0.00 in/hr0.0 mm/hr 0.00 in0.0 mm
06:13 AM 56.8°F13.8°C 56.0°F13.3°C 97% 0.7 mph N1.1 kmh N 4.5 mph7.2 kmh 30.39 in1029.1 mb 0.00 in0.0 mm 0.00 in/hr0.0 mm/hr 0.00 in0.0 mm
06:12 AM 56.8°F13.8°C 56.0°F13.3°C 97% 2.2 mph N3.5 kmh N 4.5 mph7.2 kmh 30.39 in1029.1 mb 0.00 in0.0 mm 0.00 in/hr0.0 mm/hr 0.00 in0.0 mm
06:11 AM 56.8°F13.8°C 56.0°F13.3°C 97% 0.7 mph NNE1.1 kmh NNE 4.5 mph7.2 kmh 30.39 in1029.1 mb 0.00 in0.0 mm 0.00 in/hr0.0 mm/hr 0.00 in0.0 mm
06:10 AM 56.8°F13.8°C 56.0°F13.3°C 97% 0.7 mph NNE1.1 kmh NNE 4.5 mph7.2 kmh 30.39 in1029.1 mb 0.00 in0.0 mm 0.00 in/hr0.0 mm/hr 0.00 in0.0 mm
06:09 AM 56.7°F13.7°C 56.1°F13.4°C 98% 0.7 mph NE1.1 kmh NE 3.1 mph5.0 kmh 30.38 in1028.8 mb 0.00 in0.0 mm 0.00 in/hr0.0 mm/hr 0.00 in0.0 mm
06:08 AM 56.7°F13.7°C 55.8°F13.2°C 97% 0.7 mph NE1.1 kmh NE 3.1 mph5.0 kmh 30.39 in1029.1 mb 0.00 in0.0 mm 0.00 in/hr0.0 mm/hr 0.00 in0.0 mm
06:07 AM 56.8°F13.8°C 56.0°F13.3°C 97% 0.7 mph NNE1.1 kmh NNE 3.1 mph5.0 kmh 30.39 in1029.1 mb 0.00 in0.0 mm 0.00 in/hr0.0 mm/hr 0.00 in0.0 mm
06:06 AM 56.8°F13.8°C 56.0°F13.3°C 97% Calm Calm 3.1 mph5.0 kmh 30.38 in1028.8 mb 0.00 in0.0 mm 0.00 in/hr0.0 mm/hr 0.00 in0.0 mm
06:05 AM 56.8°F13.8°C 56.0°F13.3°C 97% 0.7 mph NE1.1 kmh NE 3.1 mph5.0 kmh 30.38 in1028.8 mb 0.00 in0.0 mm 0.00 in/hr0.0 mm/hr 0.00 in0.0 mm
06:04 AM 57.0°F13.9°C 56.2°F13.4°C 97% Calm Calm 3.1 mph5.0 kmh 30.38 in1028.8 mb 0.00 in0.0 mm 0.00 in/hr0.0 mm/hr 0.00 in0.0 mm
06:03 AM 57.0°F13.9°C 56.2°F13.4°C 97% 0.7 mph NE1.1 kmh NE 3.1 mph5.0 kmh 30.38 in1028.8 mb 0.00 in0.0 mm 0.00 in/hr0.0 mm/hr 0.00 in0.0 mm
06:02 AM 57.0°F13.9°C 56.2°F13.4°C 97% 0.7 mph NE1.1 kmh NE 3.1 mph5.0 kmh 30.38 in1028.8 mb 0.00 in0.0 mm 0.00 in/hr0.0 mm/hr 0.00 in0.0 mm
06:01 AM 57.0°F13.9°C 56.5°F13.6°C 98% 1.6 mph NE2.6 kmh NE 3.1 mph5.0 kmh 30.38 in1028.8 mb 0.00 in0.0 mm 0.00 in/hr0.0 mm/hr 0.00 in0.0 mm
06:00 AM 56.8°F13.8°C 56.3°F13.5°C 98% 1.6 mph NE2.6 kmh NE 3.1 mph5.0 kmh 30.38 in1028.8 mb 0.00 in0.0 mm 0.00 in/hr0.0 mm/hr 0.00 in0.0 mm
05:59 AM 56.8°F13.8°C 56.3°F13.5°C 98% 0.7 mph NE1.1 kmh NE 3.1 mph5.0 kmh 30.38 in1028.8 mb 0.00 in0.0 mm 0.00 in/hr0.0 mm/hr 0.00 in0.0 mm
05:58 AM 56.8°F13.8°C 56.3°F13.5°C 98% 1.6 mph NNE2.6 kmh NNE 3.1 mph5.0 kmh 30.38 in1028.8 mb 0.00 in0.0 mm 0.00 in/hr0.0 mm/hr 0.00 in0.0 mm
05:57 AM 56.7°F13.7°C 56.1°F13.4°C 98% Calm Calm 2.2 mph3.5 kmh 30.38 in1028.8 mb 0.00 in0.0 mm 0.00 in/hr0.0 mm/hr 0.00 in0.0 mm
05:56 AM 56.8°F13.8°C 56.3°F13.5°C 98% Calm Calm 2.2 mph3.5 kmh 30.38 in1028.8 mb 0.00 in0.0 mm 0.00 in/hr0.0 mm/hr 0.00 in0.0 mm
05:55 AM 56.7°F13.7°C 56.1°F13.4°C 98% Calm Calm 2.2 mph3.5 kmh 30.38 in1028.8 mb 0.00 in0.0 mm 0.00 in/hr0.0 mm/hr 0.00 in0.0 mm
05:54 AM 56.8°F13.8°C 56.3°F13.5°C 98% Calm Calm 2.2 mph3.5 kmh 30.38 in1028.8 mb 0.00 in0.0 mm 0.00 in/hr0.0 mm/hr 0.00 in0.0 mm
05:53 AM 56.8°F13.8°C 56.3°F13.5°C 98% Calm Calm 2.2 mph3.5 kmh 30.38 in1028.8 mb 0.00 in0.0 mm 0.00 in/hr0.0 mm/hr 0.00 in0.0 mm
05:52 AM 56.8°F13.8°C 56.3°F13.5°C 98% Calm Calm 2.2 mph3.5 kmh 30.38 in1028.8 mb 0.00 in0.0 mm 0.00 in/hr0.0 mm/hr 0.00 in0.0 mm
05:51 AM 56.8°F13.8°C 56.3°F13.5°C 98% Calm Calm 3.1 mph5.0 kmh 30.38 in1028.8 mb 0.00 in0.0 mm 0.00 in/hr0.0 mm/hr 0.00 in0.0 mm
05:50 AM 56.7°F13.7°C 56.1°F13.4°C 98% 1.6 mph ENE2.6 kmh ENE 3.1 mph5.0 kmh 30.37 in1028.4 mb 0.00 in0.0 mm 0.00 in/hr0.0 mm/hr 0.00 in0.0 mm
05:49 AM 57.0°F13.9°C 56.5°F13.6°C 98% Calm Calm 3.1 mph5.0 kmh 30.37 in1028.4 mb 0.00 in0.0 mm 0.00 in/hr0.0 mm/hr 0.00 in0.0 mm
05:48 AM 57.2°F14.0°C 56.4°F13.6°C 97% Calm Calm 3.1 mph5.0 kmh 30.37 in1028.4 mb 0.00 in0.0 mm 0.00 in/hr0.0 mm/hr 0.00 in0.0 mm
05:47 AM 57.2°F14.0°C 56.4°F13.6°C 97% Calm Calm 3.1 mph5.0 kmh 30.37 in1028.4 mb 0.00 in0.0 mm 0.00 in/hr0.0 mm/hr 0.00 in0.0 mm
05:46 AM 57.0°F13.9°C 56.5°F13.6°C 98% 0.7 mph ENE1.1 kmh ENE 3.1 mph5.0 kmh 30.37 in1028.4 mb 0.00 in0.0 mm 0.00 in/hr0.0 mm/hr 0.00 in0.0 mm
05:45 AM 57.2°F14.0°C 56.4°F13.6°C 97% Calm Calm 3.1 mph5.0 kmh 30.37 in1028.4 mb 0.00 in0.0 mm 0.00 in/hr0.0 mm/hr 0.00 in0.0 mm
05:44 AM 57.2°F14.0°C 56.4°F13.6°C 97% 0.7 mph ENE1.1 kmh ENE 3.1 mph5.0 kmh 30.37 in1028.4 mb 0.00 in0.0 mm 0.00 in/hr0.0 mm/hr 0.00 in0.0 mm
05:43 AM 57.4°F14.1°C 56.5°F13.6°C 97% Calm Calm 3.1 mph5.0 kmh 30.37 in1028.4 mb 0.00 in0.0 mm 0.00 in/hr0.0 mm/hr 0.00 in0.0 mm
05:42 AM 57.2°F14.0°C 56.4°F13.6°C 97% Calm Calm 3.1 mph5.0 kmh 30.37 in1028.4 mb 0.00 in0.0 mm 0.00 in/hr0.0 mm/hr 0.00 in0.0 mm
05:41 AM 57.2°F14.0°C 56.4°F13.6°C 97% Calm Calm 3.1 mph5.0 kmh 30.37 in1028.4 mb 0.00 in0.0 mm 0.00 in/hr0.0 mm/hr 0.00 in0.0 mm
05:40 AM 57.2°F14.0°C 56.7°F13.7°C 98% 0.7 mph ENE1.1 kmh ENE 3.1 mph5.0 kmh 30.37 in1028.4 mb 0.00 in0.0 mm 0.00 in/hr0.0 mm/hr 0.00 in0.0 mm
05:39 AM 56.7°F13.7°C 56.7°F13.7°C 100% 0.7 mph NE1.1 kmh NE 3.1 mph5.0 kmh 30.37 in1028.4 mb 0.00 in0.0 mm 0.00 in/hr0.0 mm/hr 0.00 in0.0 mm
05:38 AM 56.7°F13.7°C 56.7°F13.7°C 100% Calm Calm 0.7 mph1.1 kmh 30.36 in1028.1 mb 0.00 in0.0 mm 0.00 in/hr0.0 mm/hr 0.00 in0.0 mm
05:37 AM 56.7°F13.7°C 56.7°F13.7°C 100% Calm Calm 0.7 mph1.1 kmh 30.36 in1028.1 mb 0.00 in0.0 mm 0.00 in/hr0.0 mm/hr 0.00 in0.0 mm
05:36 AM 56.7°F13.7°C 56.7°F13.7°C 100% Calm Calm 0.7 mph1.1 kmh 30.36 in1028.1 mb 0.00 in0.0 mm 0.00 in/hr0.0 mm/hr 0.00 in0.0 mm
05:35 AM 56.7°F13.7°C 56.7°F13.7°C 100% Calm Calm 0.7 mph1.1 kmh 30.37 in1028.4 mb 0.00 in0.0 mm 0.00 in/hr0.0 mm/hr 0.00 in0.0 mm
05:34 AM 56.7°F13.7°C 56.7°F13.7°C 100% Calm Calm 0.7 mph1.1 kmh 30.36 in1028.1 mb 0.00 in0.0 mm 0.00 in/hr0.0 mm/hr 0.00 in0.0 mm
05:33 AM 56.8°F13.8°C 56.9°F13.8°C 100% Calm Calm -- 30.36 in1028.1 mb 0.00 in0.0 mm 0.00 in/hr0.0 mm/hr 0.00 in0.0 mm
05:32 AM 56.8°F13.8°C 56.9°F13.8°C 100% Calm Calm -- 30.36 in1028.1 mb 0.00 in0.0 mm 0.00 in/hr0.0 mm/hr 0.00 in0.0 mm
05:31 AM 57.0°F13.9°C 57.0°F13.9°C 100% Calm Calm -- 30.36 in1028.1 mb 0.00 in0.0 mm 0.00 in/hr0.0 mm/hr 0.00 in0.0 mm
05:30 AM 57.0°F13.9°C 57.0°F13.9°C 100% Calm Calm -- 30.36 in1028.1 mb 0.00 in0.0 mm 0.00 in/hr0.0 mm/hr 0.00 in0.0 mm
05:29 AM 56.8°F13.8°C 56.3°F13.5°C 98% Calm Calm 1.6 mph2.6 kmh 30.37 in1028.4 mb 0.00 in0.0 mm 0.00 in/hr0.0 mm/hr 0.00 in0.0 mm
05:28 AM 57.0°F13.9°C 56.5°F13.6°C 98% Calm Calm 1.6 mph2.6 kmh 30.36 in1028.1 mb 0.00 in0.0 mm 0.00 in/hr0.0 mm/hr 0.00 in0.0 mm
05:27 AM 57.0°F13.9°C 56.5°F13.6°C 98% Calm Calm 1.6 mph2.6 kmh 30.36 in1028.1 mb 0.00 in0.0 mm 0.00 in/hr0.0 mm/hr 0.00 in0.0 mm
05:26 AM 57.2°F14.0°C 56.4°F13.6°C 97% Calm Calm 1.6 mph2.6 kmh 30.36 in1028.1 mb 0.00 in0.0 mm 0.00 in/hr0.0 mm/hr 0.00 in0.0 mm
05:25 AM 57.2°F14.0°C 56.4°F13.6°C 97% Calm Calm 1.6 mph2.6 kmh 30.37 in1028.4 mb 0.00 in0.0 mm 0.00 in/hr0.0 mm/hr 0.00 in0.0 mm
05:24 AM 57.2°F14.0°C 56.4°F13.6°C 97% Calm Calm 2.2 mph3.5 kmh 30.36 in1028.1 mb 0.00 in0.0 mm 0.00 in/hr0.0 mm/hr 0.00 in0.0 mm
05:23 AM 57.4°F14.1°C 56.5°F13.6°C 97% Calm Calm 2.2 mph3.5 kmh 30.36 in1028.1 mb 0.00 in0.0 mm 0.00 in/hr0.0 mm/hr 0.00 in0.0 mm
05:22 AM 57.4°F14.1°C 56.5°F13.6°C 97% Calm Calm 2.2 mph3.5 kmh 30.36 in1028.1 mb 0.00 in0.0 mm 0.00 in/hr0.0 mm/hr 0.00 in0.0 mm
05:21 AM 57.6°F14.2°C 56.7°F13.7°C 97% Calm Calm 2.2 mph3.5 kmh 30.36 in1028.1 mb 0.00 in0.0 mm 0.00 in/hr0.0 mm/hr 0.00 in0.0 mm
05:20 AM 57.6°F14.2°C 56.7°F13.7°C 97% Calm Calm 2.2 mph3.5 kmh 30.36 in1028.1 mb 0.00 in0.0 mm 0.00 in/hr0.0 mm/hr 0.00 in0.0 mm
05:19 AM 57.6°F14.2°C 56.7°F13.7°C 97% 0.7 mph E1.1 kmh E 2.2 mph3.5 kmh 30.36 in1028.1 mb 0.00 in0.0 mm 0.00 in/hr0.0 mm/hr 0.00 in0.0 mm
05:18 AM 57.4°F14.1°C 56.5°F13.6°C 97% 0.7 mph E1.1 kmh E 2.2 mph3.5 kmh 30.36 in1028.1 mb 0.00 in0.0 mm 0.00 in/hr0.0 mm/hr 0.00 in0.0 mm
05:17 AM 57.6°F14.2°C 56.7°F13.7°C 97% Calm Calm 2.2 mph3.5 kmh 30.36 in1028.1 mb 0.00 in0.0 mm 0.00 in/hr0.0 mm/hr 0.00 in0.0 mm
05:16 AM 57.6°F14.2°C 56.7°F13.7°C 97% Calm Calm 2.2 mph3.5 kmh 30.36 in1028.1 mb 0.00 in0.0 mm 0.00 in/hr0.0 mm/hr 0.00 in0.0 mm
05:15 AM 57.6°F14.2°C 56.7°F13.7°C 97% 0.7 mph E1.1 kmh E 2.2 mph3.5 kmh 30.36 in1028.1 mb 0.00 in0.0 mm 0.00 in/hr0.0 mm/hr 0.00 in0.0 mm
05:14 AM 57.7°F14.3°C 56.9°F13.8°C 97% 0.7 mph ENE1.1 kmh ENE 2.2 mph3.5 kmh 30.36 in1028.1 mb 0.00 in0.0 mm 0.00 in/hr0.0 mm/hr 0.00 in0.0 mm
05:13 AM 57.7°F14.3°C 56.9°F13.8°C 97% 1.6 mph ENE2.6 kmh ENE 2.2 mph3.5 kmh 30.36 in1028.1 mb 0.00 in0.0 mm 0.00 in/hr0.0 mm/hr 0.00 in0.0 mm
05:12 AM 57.7°F14.3°C 56.9°F13.8°C 97% 1.6 mph ENE2.6 kmh ENE 2.2 mph3.5 kmh 30.36 in1028.1 mb 0.00 in0.0 mm 0.00 in/hr0.0 mm/hr 0.00 in0.0 mm
05:11 AM 57.7°F14.3°C 56.9°F13.8°C 97% 0.7 mph ENE1.1 kmh ENE 2.2 mph3.5 kmh 30.36 in1028.1 mb 0.00 in0.0 mm 0.00 in/hr0.0 mm/hr 0.00 in0.0 mm
05:10 AM 57.7°F14.3°C 56.9°F13.8°C 97% 0.7 mph ENE1.1 kmh ENE 2.2 mph3.5 kmh 30.36 in1028.1 mb 0.00 in0.0 mm 0.00 in/hr0.0 mm/hr 0.00 in0.0 mm
05:09 AM 57.6°F14.2°C 56.7°F13.7°C 97% 1.6 mph ENE2.6 kmh ENE 2.2 mph3.5 kmh 30.36 in1028.1 mb 0.00 in0.0 mm 0.00 in/hr0.0 mm/hr 0.00 in0.0 mm
05:08 AM 57.6°F14.2°C 56.7°F13.7°C 97% 1.6 mph NE2.6 kmh NE 2.2 mph3.5 kmh 30.36 in1028.1 mb 0.00 in0.0 mm 0.00 in/hr0.0 mm/hr 0.00 in0.0 mm
05:07 AM 57.4°F14.1°C 56.5°F13.6°C 97% 1.6 mph ENE2.6 kmh ENE 2.2 mph3.5 kmh 30.36 in1028.1 mb 0.00 in0.0 mm 0.00 in/hr0.0 mm/hr 0.00 in0.0 mm
05:06 AM 57.4°F14.1°C 56.5°F13.6°C 97% Calm Calm 1.6 mph2.6 kmh 30.36 in1028.1 mb 0.00 in0.0 mm 0.00 in/hr0.0 mm/hr 0.00 in0.0 mm
05:05 AM 57.4°F14.1°C 56.5°F13.6°C 97% 0.7 mph ENE1.1 kmh ENE 1.6 mph2.6 kmh 30.36 in1028.1 mb 0.00 in0.0 mm 0.00 in/hr0.0 mm/hr 0.00 in0.0 mm
05:04 AM 57.4°F14.1°C 56.5°F13.6°C 97% Calm Calm -- 30.36 in1028.1 mb 0.00 in0.0 mm 0.00 in/hr0.0 mm/hr 0.00 in0.0 mm
05:03 AM 57.4°F14.1°C 56.5°F13.6°C 97% Calm Calm -- 30.36 in1028.1 mb 0.00 in0.0 mm 0.00 in/hr0.0 mm/hr 0.00 in0.0 mm
05:02 AM 57.4°F14.1°C 56.5°F13.6°C 97% Calm Calm -- 30.36 in1028.1 mb 0.00 in0.0 mm 0.00 in/hr0.0 mm/hr 0.00 in0.0 mm
05:01 AM 57.4°F14.1°C 56.5°F13.6°C 97% Calm Calm -- 30.36 in1028.1 mb 0.00 in0.0 mm 0.00 in/hr0.0 mm/hr 0.00 in0.0 mm
05:00 AM 57.6°F14.2°C 56.7°F13.7°C 97% Calm Calm -- 30.36 in1028.1 mb 0.00 in0.0 mm 0.00 in/hr0.0 mm/hr 0.00 in0.0 mm
04:59 AM 57.6°F14.2°C 56.4°F13.6°C 96% Calm Calm -- 30.36 in1028.1 mb 0.00 in0.0 mm 0.00 in/hr0.0 mm/hr 0.00 in0.0 mm
04:58 AM 57.6°F14.2°C 56.4°F13.6°C 96% Calm Calm -- 30.36 in1028.1 mb 0.00 in0.0 mm 0.00 in/hr0.0 mm/hr 0.00 in0.0 mm
04:57 AM 57.7°F14.3°C 56.6°F13.7°C 96% Calm Calm 0.7 mph1.1 kmh 30.36 in1028.1 mb 0.00 in0.0 mm 0.00 in/hr0.0 mm/hr 0.00 in0.0 mm
04:56 AM 57.9°F14.4°C 56.8°F13.8°C 96% Calm Calm 1.6 mph2.6 kmh 30.36 in1028.1 mb 0.00 in0.0 mm 0.00 in/hr0.0 mm/hr 0.00 in0.0 mm
04:55 AM 57.9°F14.4°C 56.8°F13.8°C 96% Calm Calm 2.2 mph3.5 kmh 30.36 in1028.1 mb 0.00 in0.0 mm 0.00 in/hr0.0 mm/hr 0.00 in0.0 mm
04:54 AM 58.1°F14.5°C 56.7°F13.7°C 95% Calm Calm 2.2 mph3.5 kmh 30.36 in1028.1 mb 0.00 in0.0 mm 0.00 in/hr0.0 mm/hr 0.00 in0.0 mm
04:53 AM 58.1°F14.5°C 56.7°F13.7°C 95% Calm Calm 2.2 mph3.5 kmh 30.36 in1028.1 mb 0.00 in0.0 mm 0.00 in/hr0.0 mm/hr 0.00 in0.0 mm
04:52 AM 58.3°F14.6°C 56.9°F13.8°C 95% Calm Calm 3.1 mph5.0 kmh 30.36 in1028.1 mb 0.00 in0.0 mm 0.00 in/hr0.0 mm/hr 0.00 in0.0 mm
04:51 AM 58.3°F14.6°C 56.9°F13.8°C 95% Calm Calm 3.1 mph5.0 kmh 30.36 in1028.1 mb 0.00 in0.0 mm 0.00 in/hr0.0 mm/hr 0.00 in0.0 mm
04:50 AM 58.5°F14.7°C 57.0°F13.9°C 95% Calm Calm 3.1 mph5.0 kmh 30.36 in1028.1 mb 0.00 in0.0 mm 0.00 in/hr0.0 mm/hr 0.00 in0.0 mm
04:49 AM 58.6°F14.8°C 57.2°F14.0°C 95% Calm Calm 3.1 mph5.0 kmh 30.36 in1028.1 mb 0.00 in0.0 mm 0.00 in/hr0.0 mm/hr 0.00 in0.0 mm
04:48 AM 58.6°F14.8°C 57.5°F14.2°C 96% Calm Calm 3.1 mph5.0 kmh 30.36 in1028.1 mb 0.00 in0.0 mm 0.00 in/hr0.0 mm/hr 0.00 in0.0 mm
04:47 AM 58.8°F14.9°C 57.7°F14.3°C 96% Calm Calm 3.1 mph5.0 kmh 30.36 in1028.1 mb 0.00 in0.0 mm 0.00 in/hr0.0 mm/hr 0.00 in0.0 mm
04:46 AM 58.6°F14.8°C 57.8°F14.3°C 97% 1.6 mph ENE2.6 kmh ENE 3.1 mph5.0 kmh 30.36 in1028.1 mb 0.00 in0.0 mm 0.00 in/hr0.0 mm/hr 0.00 in0.0 mm
04:45 AM 58.6°F14.8°C 57.8°F14.3°C 97% 0.7 mph ENE1.1 kmh ENE 3.1 mph5.0 kmh 30.36 in1028.1 mb 0.00 in0.0 mm 0.00 in/hr0.0 mm/hr 0.00 in0.0 mm
04:44 AM 58.5°F14.7°C 57.6°F14.2°C 97% Calm Calm 3.1 mph5.0 kmh 30.36 in1028.1 mb 0.00 in0.0 mm 0.00 in/hr0.0 mm/hr 0.00 in0.0 mm
04:43 AM 58.5°F14.7°C 57.9°F14.4°C 98% Calm Calm 3.1 mph5.0 kmh 30.36 in1028.1 mb 0.00 in0.0 mm 0.00 in/hr0.0 mm/hr 0.00 in0.0 mm
04:42 AM 57.0°F13.9°C 57.0°F13.9°C 100% Calm Calm 1.6 mph2.6 kmh 30.36 in1028.1 mb 0.00 in0.0 mm 0.00 in/hr0.0 mm/hr 0.00 in0.0 mm
04:41 AM 56.7°F13.7°C 56.7°F13.7°C 100% Calm Calm -- 30.36 in1028.1 mb 0.00 in0.0 mm 0.00 in/hr0.0 mm/hr 0.00 in0.0 mm
04:40 AM 56.7°F13.7°C 56.7°F13.7°C 100% Calm Calm -- 30.35 in1027.8 mb 0.00 in0.0 mm 0.00 in/hr0.0 mm/hr 0.00 in0.0 mm
04:39 AM 56.8°F13.8°C 56.9°F13.8°C 100% Calm Calm -- 30.35 in1027.8 mb 0.00 in0.0 mm 0.00 in/hr0.0 mm/hr 0.00 in0.0 mm
04:38 AM 56.8°F13.8°C 56.9°F13.8°C 100% Calm Calm -- 30.35 in1027.8 mb 0.00 in0.0 mm 0.00 in/hr0.0 mm/hr 0.00 in0.0 mm
04:37 AM 57.0°F13.9°C 57.0°F13.9°C 100% Calm Calm -- 30.35 in1027.8 mb 0.00 in0.0 mm 0.00 in/hr0.0 mm/hr 0.00 in0.0 mm
04:36 AM 57.0°F13.9°C 57.0°F13.9°C 100% Calm Calm -- 30.35 in1027.8 mb 0.00 in0.0 mm 0.00 in/hr0.0 mm/hr 0.00 in0.0 mm
04:35 AM 57.2°F14.0°C 56.7°F13.7°C 98% Calm Calm -- 30.35 in1027.8 mb 0.00 in0.0 mm 0.00 in/hr0.0 mm/hr 0.00 in0.0 mm
04:34 AM 57.2°F14.0°C 56.7°F13.7°C 98% Calm Calm -- 30.35 in1027.8 mb 0.00 in0.0 mm 0.00 in/hr0.0 mm/hr 0.00 in0.0 mm
04:33 AM 57.4°F14.1°C 56.8°F13.8°C 98% Calm Calm -- 30.35 in1027.8 mb 0.00 in0.0 mm 0.00 in/hr0.0 mm/hr 0.00 in0.0 mm
04:32 AM 57.4°F14.1°C 56.8°F13.8°C 98% Calm Calm -- 30.35 in1027.8 mb 0.00 in0.0 mm 0.00 in/hr0.0 mm/hr 0.00 in0.0 mm
04:31 AM 57.4°F14.1°C 56.8°F13.8°C 98% Calm Calm -- 30.35 in1027.8 mb 0.00 in0.0 mm 0.00 in/hr0.0 mm/hr 0.00 in0.0 mm
04:30 AM 57.4°F14.1°C 56.8°F13.8°C 98% Calm Calm -- 30.35 in1027.8 mb 0.00 in0.0 mm 0.00 in/hr0.0 mm/hr 0.00 in0.0 mm
04:29 AM 57.2°F14.0°C 56.7°F13.7°C 98% Calm Calm -- 30.35 in1027.8 mb 0.00 in0.0 mm 0.00 in/hr0.0 mm/hr 0.00 in0.0 mm
04:28 AM 57.2°F14.0°C 56.7°F13.7°C 98% Calm Calm -- 30.35 in1027.8 mb 0.00 in0.0 mm 0.00 in/hr0.0 mm/hr 0.00 in0.0 mm
04:27 AM 57.2°F14.0°C 56.7°F13.7°C 98% Calm Calm -- 30.35 in1027.8 mb 0.00 in0.0 mm 0.00 in/hr0.0 mm/hr 0.00 in0.0 mm
04:26 AM 57.2°F14.0°C 56.7°F13.7°C 98% Calm Calm -- 30.35 in1027.8 mb 0.00 in0.0 mm 0.00 in/hr0.0 mm/hr 0.00 in0.0 mm
04:25 AM 57.2°F14.0°C 56.7°F13.7°C 98% Calm Calm -- 30.35 in1027.8 mb 0.00 in0.0 mm 0.00 in/hr0.0 mm/hr 0.00 in0.0 mm
04:24 AM 57.2°F14.0°C 56.7°F13.7°C 98% Calm Calm -- 30.35 in1027.8 mb 0.00 in0.0 mm 0.00 in/hr0.0 mm/hr 0.00 in0.0 mm
04:23 AM 57.2°F14.0°C 56.7°F13.7°C 98% Calm Calm -- 30.35 in1027.8 mb 0.00 in0.0 mm 0.00 in/hr0.0 mm/hr 0.00 in0.0 mm
04:22 AM 57.4°F14.1°C 56.5°F13.6°C 97% Calm Calm -- 30.35 in1027.8 mb 0.00 in0.0 mm 0.00 in/hr0.0 mm/hr 0.00 in0.0 mm
04:21 AM 57.4°F14.1°C 56.5°F13.6°C 97% Calm Calm 0.7 mph1.1 kmh 30.35 in1027.8 mb 0.00 in0.0 mm 0.00 in/hr0.0 mm/hr 0.00 in0.0 mm
04:20 AM 57.4°F14.1°C 56.5°F13.6°C 97% Calm Calm 0.7 mph1.1 kmh 30.36 in1028.1 mb 0.00 in0.0 mm 0.00 in/hr0.0 mm/hr 0.00 in0.0 mm
04:19 AM 57.4°F14.1°C 56.5°F13.6°C 97% Calm Calm 0.7 mph1.1 kmh 30.35 in1027.8 mb 0.00 in0.0 mm 0.00 in/hr0.0 mm/hr 0.00 in0.0 mm
04:18 AM 57.6°F14.2°C 56.7°F13.7°C 97% Calm Calm 0.7 mph1.1 kmh 30.36 in1028.1 mb 0.00 in0.0 mm 0.00 in/hr0.0 mm/hr 0.00 in0.0 mm
04:17 AM 57.6°F14.2°C 56.7°F13.7°C 97% Calm Calm 0.7 mph1.1 kmh 30.36 in1028.1 mb 0.00 in0.0 mm 0.00 in/hr0.0 mm/hr 0.00 in0.0 mm
04:16 AM 57.7°F14.3°C 56.9°F13.8°C 97% Calm Calm 0.7 mph1.1 kmh 30.35 in1027.8 mb 0.00 in0.0 mm 0.00 in/hr0.0 mm/hr 0.00 in0.0 mm
04:15 AM 57.9°F14.4°C 57.1°F13.9°C 97% Calm Calm 0.7 mph1.1 kmh 30.35 in1027.8 mb 0.00 in0.0 mm 0.00 in/hr0.0 mm/hr 0.00 in0.0 mm
04:14 AM 58.1°F14.5°C 57.3°F14.1°C 97% Calm Calm 0.7 mph1.1 kmh 30.35 in1027.8 mb 0.00 in0.0 mm 0.00 in/hr0.0 mm/hr 0.00 in0.0 mm
04:13 AM 58.1°F14.5°C 57.0°F13.9°C 96% Calm Calm 0.7 mph1.1 kmh 30.35 in1027.8 mb 0.00 in0.0 mm 0.00 in/hr0.0 mm/hr 0.00 in0.0 mm
04:12 AM 58.1°F14.5°C 57.0°F13.9°C 96% Calm Calm 0.7 mph1.1 kmh 30.36 in1028.1 mb 0.00 in0.0 mm 0.00 in/hr0.0 mm/hr 0.00 in0.0 mm
04:11 AM 58.1°F14.5°C 57.0°F13.9°C 96% Calm Calm 0.7 mph1.1 kmh 30.35 in1027.8 mb 0.00 in0.0 mm 0.00 in/hr0.0 mm/hr 0.00 in0.0 mm
04:10 AM 58.1°F14.5°C 57.0°F13.9°C 96% Calm Calm -- 30.35 in1027.8 mb 0.00 in0.0 mm 0.00 in/hr0.0 mm/hr 0.00 in0.0 mm
04:09 AM 58.5°F14.7°C 57.3°F14.1°C 96% Calm Calm -- 30.36 in1028.1 mb 0.00 in0.0 mm 0.00 in/hr0.0 mm/hr 0.00 in0.0 mm
04:08 AM 58.3°F14.6°C 56.9°F13.8°C 95% Calm Calm -- 30.35 in1027.8 mb 0.00 in0.0 mm 0.00 in/hr0.0 mm/hr 0.00 in0.0 mm
04:07 AM 58.5°F14.7°C 57.0°F13.9°C 95% Calm Calm 1.6 mph2.6 kmh 30.35 in1027.8 mb 0.00 in0.0 mm 0.00 in/hr0.0 mm/hr 0.00 in0.0 mm
04:06 AM 58.5°F14.7°C 57.0°F13.9°C 95% Calm Calm 3.1 mph5.0 kmh 30.35 in1027.8 mb 0.00 in0.0 mm 0.00 in/hr0.0 mm/hr 0.00 in0.0 mm
04:05 AM 58.8°F14.9°C 57.4°F14.1°C 95% Calm Calm 3.8 mph6.1 kmh 30.35 in1027.8 mb 0.00 in0.0 mm 0.00 in/hr0.0 mm/hr 0.00 in0.0 mm
04:04 AM 58.8°F14.9°C 56.8°F13.8°C 93% Calm Calm 3.8 mph6.1 kmh 30.35 in1027.8 mb 0.00 in0.0 mm 0.00 in/hr0.0 mm/hr 0.00 in0.0 mm
04:03 AM 58.8°F14.9°C 56.8°F13.8°C 93% Calm Calm 3.8 mph6.1 kmh 30.36 in1028.1 mb 0.00 in0.0 mm 0.00 in/hr0.0 mm/hr 0.00 in0.0 mm
04:02 AM 59.0°F15.0°C 56.4°F13.6°C 91% Calm Calm 3.8 mph6.1 kmh 30.36 in1028.1 mb 0.00 in0.0 mm 0.00 in/hr0.0 mm/hr 0.00 in0.0 mm
04:01 AM 59.2°F15.1°C 56.6°F13.7°C 91% Calm Calm 3.8 mph6.1 kmh 30.36 in1028.1 mb 0.00 in0.0 mm 0.00 in/hr0.0 mm/hr 0.00 in0.0 mm
04:00 AM 59.2°F15.1°C 56.6°F13.7°C 91% Calm Calm 3.8 mph6.1 kmh 30.36 in1028.1 mb 0.00 in0.0 mm 0.00 in/hr0.0 mm/hr 0.00 in0.0 mm
03:59 AM 59.2°F15.1°C 56.3°F13.5°C 90% Calm Calm 3.8 mph6.1 kmh 30.36 in1028.1 mb 0.00 in0.0 mm 0.00 in/hr0.0 mm/hr 0.00 in0.0 mm
03:58 AM 59.4°F15.2°C 56.4°F13.6°C 90% Calm Calm 3.8 mph6.1 kmh 30.36 in1028.1 mb 0.00 in0.0 mm 0.00 in/hr0.0 mm/hr 0.00 in0.0 mm
03:57 AM 59.5°F15.3°C 56.9°F13.8°C 91% 0.7 mph NE1.1 kmh NE 3.8 mph6.1 kmh 30.36 in1028.1 mb 0.00 in0.0 mm 0.00 in/hr0.0 mm/hr 0.00 in0.0 mm
03:56 AM 59.4°F15.2°C 56.7°F13.7°C 91% 1.6 mph NE2.6 kmh NE 3.8 mph6.1 kmh 30.36 in1028.1 mb 0.00 in0.0 mm 0.00 in/hr0.0 mm/hr 0.00 in0.0 mm
03:55 AM 59.0°F15.0°C 56.4°F13.6°C 91% 2.2 mph NE3.5 kmh NE 3.8 mph6.1 kmh 30.36 in1028.1 mb 0.00 in0.0 mm 0.00 in/hr0.0 mm/hr 0.00 in0.0 mm
03:54 AM 59.2°F15.1°C 56.3°F13.5°C 90% Calm Calm 1.6 mph2.6 kmh 30.36 in1028.1 mb 0.00 in0.0 mm 0.00 in/hr0.0 mm/hr 0.00 in0.0 mm
03:53 AM 59.4°F15.2°C 56.4°F13.6°C 90% Calm Calm 2.2 mph3.5 kmh 30.36 in1028.1 mb 0.00 in0.0 mm 0.00 in/hr0.0 mm/hr 0.00 in0.0 mm
03:52 AM 59.4°F15.2°C 56.4°F13.6°C 90% Calm Calm 2.2 mph3.5 kmh 30.36 in1028.1 mb 0.00 in0.0 mm 0.00 in/hr0.0 mm/hr 0.00 in0.0 mm
03:51 AM 59.4°F15.2°C 56.4°F13.6°C 90% Calm Calm 2.2 mph3.5 kmh 30.36 in1028.1 mb 0.00 in0.0 mm 0.00 in/hr0.0 mm/hr 0.00 in0.0 mm
03:50 AM 59.5°F15.3°C 56.6°F13.7°C 90% Calm Calm 3.8 mph6.1 kmh 30.36 in1028.1 mb 0.00 in0.0 mm 0.00 in/hr0.0 mm/hr 0.00 in0.0 mm
03:49 AM 59.5°F15.3°C 56.6°F13.7°C 90% Calm Calm 4.5 mph7.2 kmh 30.36 in1028.1 mb 0.00 in0.0 mm 0.00 in/hr0.0 mm/hr 0.00 in0.0 mm
03:48 AM 59.5°F15.3°C 56.6°F13.7°C 90% Calm Calm 4.5 mph7.2 kmh 30.36 in1028.1 mb 0.00 in0.0 mm 0.00 in/hr0.0 mm/hr 0.00 in0.0 mm
03:47 AM 59.5°F15.3°C 56.0°F13.3°C 88% Calm Calm 4.5 mph7.2 kmh 30.36 in1028.1 mb 0.00 in0.0 mm 0.00 in/hr0.0 mm/hr 0.00 in0.0 mm
03:46 AM 59.5°F15.3°C 56.0°F13.3°C 88% Calm Calm 4.5 mph7.2 kmh 30.36 in1028.1 mb 0.00 in0.0 mm 0.00 in/hr0.0 mm/hr 0.00 in0.0 mm
03:45 AM 59.5°F15.3°C 56.0°F13.3°C 88% Calm Calm 4.5 mph7.2 kmh 30.36 in1028.1 mb 0.00 in0.0 mm 0.00 in/hr0.0 mm/hr 0.00 in0.0 mm
03:44 AM 59.7°F15.4°C 55.9°F13.3°C 87% Calm Calm 4.5 mph7.2 kmh 30.36 in1028.1 mb 0.00 in0.0 mm 0.00 in/hr0.0 mm/hr 0.00 in0.0 mm
03:43 AM 59.7°F15.4°C 55.9°F13.3°C 87% 0.7 mph ENE1.1 kmh ENE 4.5 mph7.2 kmh 30.36 in1028.1 mb 0.00 in0.0 mm 0.00 in/hr0.0 mm/hr 0.00 in0.0 mm
03:42 AM 59.9°F15.5°C 56.0°F13.3°C 87% 0.7 mph ENE1.1 kmh ENE 4.5 mph7.2 kmh 30.36 in1028.1 mb 0.00 in0.0 mm 0.00 in/hr0.0 mm/hr 0.00 in0.0 mm
03:41 AM 60.1°F15.6°C 56.2°F13.4°C 87% 0.7 mph ENE1.1 kmh ENE 4.5 mph7.2 kmh 30.36 in1028.1 mb 0.00 in0.0 mm 0.00 in/hr0.0 mm/hr 0.00 in0.0 mm
03:40 AM 60.1°F15.6°C 56.2°F13.4°C 87% 2.2 mph E3.5 kmh E 4.5 mph7.2 kmh 30.36 in1028.1 mb 0.00 in0.0 mm 0.00 in/hr0.0 mm/hr 0.00 in0.0 mm
03:39 AM 60.1°F15.6°C 56.2°F13.4°C 87% 3.1 mph E5.0 kmh E 4.5 mph7.2 kmh 30.36 in1028.1 mb 0.00 in0.0 mm 0.00 in/hr0.0 mm/hr 0.00 in0.0 mm
03:38 AM 60.1°F15.6°C 56.2°F13.4°C 87% 2.2 mph E3.5 kmh E 3.8 mph6.1 kmh 30.36 in1028.1 mb 0.00 in0.0 mm 0.00 in/hr0.0 mm/hr 0.00 in0.0 mm
03:37 AM 60.1°F15.6°C 55.9°F13.3°C 86% 0.7 mph E1.1 kmh E 4.5 mph7.2 kmh 30.35 in1027.8 mb 0.00 in0.0 mm 0.00 in/hr0.0 mm/hr 0.00 in0.0 mm
03:36 AM 60.1°F15.6°C 55.9°F13.3°C 86% Calm Calm 4.5 mph7.2 kmh 30.36 in1028.1 mb 0.00 in0.0 mm 0.00 in/hr0.0 mm/hr 0.00 in0.0 mm
03:35 AM 60.3°F15.7°C 56.1°F13.4°C 86% 1.6 mph E2.6 kmh E 6.0 mph9.7 kmh 30.36 in1028.1 mb 0.00 in0.0 mm 0.00 in/hr0.0 mm/hr 0.00 in0.0 mm
03:34 AM 60.1°F15.6°C 55.9°F13.3°C 86% 2.2 mph ENE3.5 kmh ENE 6.0 mph9.7 kmh 30.36 in1028.1 mb 0.00 in0.0 mm 0.00 in/hr0.0 mm/hr 0.00 in0.0 mm
03:33 AM 60.3°F15.7°C 55.7°F13.2°C 85% Calm Calm 6.0 mph9.7 kmh 30.36 in1028.1 mb 0.00 in0.0 mm 0.00 in/hr0.0 mm/hr 0.00 in0.0 mm
03:32 AM 60.3°F15.7°C 55.7°F13.2°C 85% Calm Calm 6.0 mph9.7 kmh 30.36 in1028.1 mb 0.00 in0.0 mm 0.00 in/hr0.0 mm/hr 0.00 in0.0 mm
03:31 AM 60.4°F15.8°C 55.9°F13.3°C 85% Calm Calm 6.0 mph9.7 kmh 30.36 in1028.1 mb 0.00 in0.0 mm 0.00 in/hr0.0 mm/hr 0.00 in0.0 mm
03:30 AM 60.4°F15.8°C 55.9°F13.3°C 85% 1.6 mph ENE2.6 kmh ENE 6.0 mph9.7 kmh 30.36 in1028.1 mb 0.00 in0.0 mm 0.00 in/hr0.0 mm/hr 0.00 in0.0 mm
03:29 AM 60.6°F15.9°C 56.1°F13.4°C 85% 2.2 mph ENE3.5 kmh ENE 6.0 mph9.7 kmh 30.35 in1027.8 mb 0.00 in0.0 mm 0.00 in/hr0.0 mm/hr 0.00 in0.0 mm
03:28 AM 60.8°F16.0°C 55.6°F13.1°C 83% 0.7 mph ENE1.1 kmh ENE 6.0 mph9.7 kmh 30.35 in1027.8 mb 0.00 in0.0 mm 0.00 in/hr0.0 mm/hr 0.00 in0.0 mm
03:27 AM 60.8°F16.0°C 55.6°F13.1°C 83% 2.2 mph ENE3.5 kmh ENE 6.0 mph9.7 kmh 30.35 in1027.8 mb 0.00 in0.0 mm 0.00 in/hr0.0 mm/hr 0.00 in0.0 mm
03:26 AM 60.8°F16.0°C 55.6°F13.1°C 83% 2.2 mph ENE3.5 kmh ENE 6.0 mph9.7 kmh 30.36 in1028.1 mb 0.00 in0.0 mm 0.00 in/hr0.0 mm/hr 0.00 in0.0 mm
03:25 AM 60.6°F15.9°C 56.1°F13.4°C 85% 3.8 mph ENE6.1 kmh ENE 5.4 mph8.7 kmh 30.36 in1028.1 mb 0.00 in0.0 mm 0.00 in/hr0.0 mm/hr 0.00 in0.0 mm
03:24 AM 60.4°F15.8°C 55.9°F13.3°C 85% 0.7 mph E1.1 kmh E 4.5 mph7.2 kmh 30.36 in1028.1 mb 0.00 in0.0 mm 0.00 in/hr0.0 mm/hr 0.00 in0.0 mm
03:23 AM 60.6°F15.9°C 56.1°F13.4°C 85% Calm Calm 4.5 mph7.2 kmh 30.36 in1028.1 mb 0.00 in0.0 mm 0.00 in/hr0.0 mm/hr 0.00 in0.0 mm
03:22 AM 60.6°F15.9°C 56.1°F13.4°C 85% 0.7 mph E1.1 kmh E 4.5 mph7.2 kmh 30.36 in1028.1 mb 0.00 in0.0 mm 0.00 in/hr0.0 mm/hr 0.00 in0.0 mm
03:21 AM 60.6°F15.9°C 56.1°F13.4°C 85% 2.2 mph E3.5 kmh E 4.5 mph7.2 kmh 30.36 in1028.1 mb 0.00 in0.0 mm 0.00 in/hr0.0 mm/hr 0.00 in0.0 mm
03:20 AM 60.3°F15.7°C 55.7°F13.2°C 85% 3.1 mph ENE5.0 kmh ENE 4.5 mph7.2 kmh 30.36 in1028.1 mb 0.00 in0.0 mm 0.00 in/hr0.0 mm/hr 0.00 in0.0 mm
03:19 AM 60.4°F15.8°C 55.9°F13.3°C 85% 0.7 mph ENE1.1 kmh ENE 3.1 mph5.0 kmh 30.36 in1028.1 mb 0.00 in0.0 mm 0.00 in/hr0.0 mm/hr 0.00 in0.0 mm
03:18 AM 60.4°F15.8°C 55.9°F13.3°C 85% Calm Calm 3.1 mph5.0 kmh 30.35 in1027.8 mb 0.00 in0.0 mm 0.00 in/hr0.0 mm/hr 0.00 in0.0 mm
03:17 AM 60.6°F15.9°C 56.1°F13.4°C 85% Calm Calm 3.8 mph6.1 kmh 30.36 in1028.1 mb 0.00 in0.0 mm 0.00 in/hr0.0 mm/hr 0.00 in0.0 mm
03:16 AM 60.6°F15.9°C 56.1°F13.4°C 85% Calm Calm 3.8 mph6.1 kmh 30.36 in1028.1 mb 0.00 in0.0 mm 0.00 in/hr0.0 mm/hr 0.00 in0.0 mm
03:15 AM 60.6°F15.9°C 56.1°F13.4°C 85% Calm Calm 3.8 mph6.1 kmh 30.36 in1028.1 mb 0.00 in0.0 mm 0.00 in/hr0.0 mm/hr 0.00 in0.0 mm
03:14 AM 60.8°F16.0°C 55.6°F13.1°C 83% Calm Calm 6.0 mph9.7 kmh 30.35 in1027.8 mb 0.00 in0.0 mm 0.00 in/hr0.0 mm/hr 0.00 in0.0 mm
03:13 AM 61.0°F16.1°C 55.8°F13.2°C 83% Calm Calm 6.0 mph9.7 kmh 30.36 in1028.1 mb 0.00 in0.0 mm 0.00 in/hr0.0 mm/hr 0.00 in0.0 mm
03:12 AM 60.8°F16.0°C 55.6°F13.1°C 83% 1.6 mph ENE2.6 kmh ENE 6.0 mph9.7 kmh 30.35 in1027.8 mb 0.00 in0.0 mm 0.00 in/hr0.0 mm/hr 0.00 in0.0 mm
03:11 AM 60.8°F16.0°C 55.6°F13.1°C 83% 0.7 mph ENE1.1 kmh ENE 6.0 mph9.7 kmh 30.36 in1028.1 mb 0.00 in0.0 mm 0.00 in/hr0.0 mm/hr 0.00 in0.0 mm
03:10 AM 60.8°F16.0°C 55.6°F13.1°C 83% 0.7 mph ENE1.1 kmh ENE 6.0 mph9.7 kmh 30.36 in1028.1 mb 0.00 in0.0 mm 0.00 in/hr0.0 mm/hr 0.00 in0.0 mm
03:09 AM 61.0°F16.1°C 55.5°F13.1°C 82% Calm Calm 6.0 mph9.7 kmh 30.36 in1028.1 mb 0.00 in0.0 mm 0.00 in/hr0.0 mm/hr 0.00 in0.0 mm
03:08 AM 61.2°F16.2°C 55.6°F13.1°C 82% 2.2 mph ENE3.5 kmh ENE 6.9 mph11.1 kmh 30.36 in1028.1 mb 0.00 in0.0 mm 0.00 in/hr0.0 mm/hr 0.00 in0.0 mm
03:07 AM 61.2°F16.2°C 55.6°F13.1°C 82% 3.1 mph ENE5.0 kmh ENE 8.3 mph13.4 kmh 30.36 in1028.1 mb 0.00 in0.0 mm 0.00 in/hr0.0 mm/hr 0.00 in0.0 mm
03:06 AM 61.0°F16.1°C 55.5°F13.1°C 82% 1.6 mph ENE2.6 kmh ENE 8.3 mph13.4 kmh 30.36 in1028.1 mb 0.00 in0.0 mm 0.00 in/hr0.0 mm/hr 0.00 in0.0 mm
03:05 AM 61.2°F16.2°C 55.6°F13.1°C 82% 3.1 mph ENE5.0 kmh ENE 8.3 mph13.4 kmh 30.36 in1028.1 mb 0.00 in0.0 mm 0.00 in/hr0.0 mm/hr 0.00 in0.0 mm
03:04 AM 61.2°F16.2°C 55.6°F13.1°C 82% 3.1 mph ENE5.0 kmh ENE 8.3 mph13.4 kmh 30.36 in1028.1 mb 0.00 in0.0 mm 0.00 in/hr0.0 mm/hr 0.00 in0.0 mm
03:03 AM 61.2°F16.2°C 55.6°F13.1°C 82% 1.6 mph ENE2.6 kmh ENE 8.3 mph13.4 kmh 30.36 in1028.1 mb 0.00 in0.0 mm 0.00 in/hr0.0 mm/hr 0.00 in0.0 mm
03:02 AM 61.2°F16.2°C 55.6°F13.1°C 82% 3.8 mph ENE6.1 kmh ENE 8.3 mph13.4 kmh 30.36 in1028.1 mb 0.00 in0.0 mm 0.00 in/hr0.0 mm/hr 0.00 in0.0 mm
03:01 AM 61.2°F16.2°C 55.6°F13.1°C 82% 3.8 mph ENE6.1 kmh ENE 8.3 mph13.4 kmh 30.36 in1028.1 mb 0.00 in0.0 mm 0.00 in/hr0.0 mm/hr 0.00 in0.0 mm
03:00 AM 61.2°F16.2°C 55.6°F13.1°C 82% 3.8 mph ENE6.1 kmh ENE 8.3 mph13.4 kmh 30.36 in1028.1 mb 0.00 in0.0 mm 0.00 in/hr0.0 mm/hr 0.00 in0.0 mm
02:59 AM 61.2°F16.2°C 55.6°F13.1°C 82% 3.1 mph ENE5.0 kmh ENE 8.3 mph13.4 kmh 30.36 in1028.1 mb 0.00 in0.0 mm 0.00 in/hr0.0 mm/hr 0.00 in0.0 mm
02:58 AM 61.3°F16.3°C 55.8°F13.2°C 82% 3.8 mph ENE6.1 kmh ENE 8.3 mph13.4 kmh 30.36 in1028.1 mb 0.00 in0.0 mm 0.00 in/hr0.0 mm/hr 0.00 in0.0 mm
02:57 AM 61.2°F16.2°C 55.6°F13.1°C 82% 3.8 mph ENE6.1 kmh ENE 6.9 mph11.1 kmh 30.36 in1028.1 mb 0.00 in0.0 mm 0.00 in/hr0.0 mm/hr 0.00 in0.0 mm
02:56 AM 61.3°F16.3°C 55.8°F13.2°C 82% 3.1 mph NE5.0 kmh NE 6.9 mph11.1 kmh 30.36 in1028.1 mb 0.00 in0.0 mm 0.00 in/hr0.0 mm/hr 0.00 in0.0 mm
02:55 AM 61.3°F16.3°C 55.8°F13.2°C 82% 3.8 mph NE6.1 kmh NE 6.9 mph11.1 kmh 30.36 in1028.1 mb 0.00 in0.0 mm 0.00 in/hr0.0 mm/hr 0.00 in0.0 mm
02:54 AM 61.3°F16.3°C 55.8°F13.2°C 82% 3.8 mph NE6.1 kmh NE 6.9 mph11.1 kmh 30.36 in1028.1 mb 0.00 in0.0 mm 0.00 in/hr0.0 mm/hr 0.00 in0.0 mm
02:53 AM 61.5°F16.4°C 56.0°F13.3°C 82% 3.8 mph NE6.1 kmh NE 6.9 mph11.1 kmh 30.36 in1028.1 mb 0.00 in0.0 mm 0.00 in/hr0.0 mm/hr 0.00 in0.0 mm
02:52 AM 61.3°F16.3°C 55.8°F13.2°C 82% 3.8 mph NE6.1 kmh NE 6.9 mph11.1 kmh 30.36 in1028.1 mb 0.00 in0.0 mm 0.00 in/hr0.0 mm/hr 0.00 in0.0 mm
02:51 AM 61.3°F16.3°C 55.8°F13.2°C 82% 3.8 mph NE6.1 kmh NE 6.9 mph11.1 kmh 30.36 in1028.1 mb 0.00 in0.0 mm 0.00 in/hr0.0 mm/hr 0.00 in0.0 mm
02:50 AM 61.3°F16.3°C 55.8°F13.2°C 82% 3.8 mph NE6.1 kmh NE 6.9 mph11.1 kmh 30.36 in1028.1 mb 0.00 in0.0 mm 0.00 in/hr0.0 mm/hr 0.00 in0.0 mm
02:49 AM 61.5°F16.4°C 56.0°F13.3°C 82% 3.1 mph NE5.0 kmh NE 6.9 mph11.1 kmh 30.36 in1028.1 mb 0.00 in0.0 mm 0.00 in/hr0.0 mm/hr 0.00 in0.0 mm
02:48 AM 61.5°F16.4°C 56.0°F13.3°C 82% 3.8 mph NE6.1 kmh NE 6.9 mph11.1 kmh 30.36 in1028.1 mb 0.00 in0.0 mm 0.00 in/hr0.0 mm/hr 0.00 in0.0 mm
02:47 AM 61.5°F16.4°C 56.0°F13.3°C 82% 3.1 mph NE5.0 kmh NE 6.9 mph11.1 kmh 30.36 in1028.1 mb 0.00 in0.0 mm 0.00 in/hr0.0 mm/hr 0.00 in0.0 mm
02:46 AM 61.5°F16.4°C 56.0°F13.3°C 82% 2.2 mph ENE3.5 kmh ENE 6.9 mph11.1 kmh 30.36 in1028.1 mb 0.00 in0.0 mm 0.00 in/hr0.0 mm/hr 0.00 in0.0 mm
02:45 AM 61.5°F16.4°C 55.6°F13.1°C 81% 2.2 mph ENE3.5 kmh ENE 6.9 mph11.1 kmh 30.36 in1028.1 mb 0.00 in0.0 mm 0.00 in/hr0.0 mm/hr 0.00 in0.0 mm
02:44 AM 61.5°F16.4°C 55.6°F13.1°C 81% 2.2 mph ENE3.5 kmh ENE 6.9 mph11.1 kmh 30.36 in1028.1 mb 0.00 in0.0 mm 0.00 in/hr0.0 mm/hr 0.00 in0.0 mm
02:43 AM 61.7°F16.5°C 55.8°F13.2°C 81% 3.1 mph ENE5.0 kmh ENE 6.9 mph11.1 kmh 30.36 in1028.1 mb 0.00 in0.0 mm 0.00 in/hr0.0 mm/hr 0.00 in0.0 mm
02:42 AM 61.7°F16.5°C 55.8°F13.2°C 81% 3.8 mph E6.1 kmh E 6.9 mph11.1 kmh 30.36 in1028.1 mb 0.00 in0.0 mm 0.00 in/hr0.0 mm/hr 0.00 in0.0 mm
02:41 AM 61.7°F16.5°C 55.8°F13.2°C 81% 3.1 mph E5.0 kmh E 6.9 mph11.1 kmh 30.36 in1028.1 mb 0.00 in0.0 mm 0.00 in/hr0.0 mm/hr 0.00 in0.0 mm
02:40 AM 61.9°F16.6°C 56.0°F13.3°C 81% 3.8 mph E6.1 kmh E 6.9 mph11.1 kmh 30.36 in1028.1 mb 0.00 in0.0 mm 0.00 in/hr0.0 mm/hr 0.00 in0.0 mm
02:39 AM 61.9°F16.6°C 56.0°F13.3°C 81% 3.1 mph ENE5.0 kmh ENE 8.3 mph13.4 kmh 30.36 in1028.1 mb 0.00 in0.0 mm 0.00 in/hr0.0 mm/hr 0.00 in0.0 mm
02:38 AM 61.9°F16.6°C 55.7°F13.2°C 80% 3.8 mph ENE6.1 kmh ENE 8.3 mph13.4 kmh 30.36 in1028.1 mb 0.00 in0.0 mm 0.00 in/hr0.0 mm/hr 0.00 in0.0 mm
02:37 AM 62.1°F16.7°C 55.8°F13.2°C 80% 3.1 mph E5.0 kmh E 8.3 mph13.4 kmh 30.36 in1028.1 mb 0.00 in0.0 mm 0.00 in/hr0.0 mm/hr 0.00 in0.0 mm
02:36 AM 62.1°F16.7°C 55.8°F13.2°C 80% 2.2 mph ENE3.5 kmh ENE 8.3 mph13.4 kmh 30.36 in1028.1 mb 0.00 in0.0 mm 0.00 in/hr0.0 mm/hr 0.00 in0.0 mm
02:35 AM 62.2°F16.8°C 56.0°F13.3°C 80% 3.8 mph ENE6.1 kmh ENE 8.3 mph13.4 kmh 30.36 in1028.1 mb 0.00 in0.0 mm 0.00 in/hr0.0 mm/hr 0.00 in0.0 mm
02:34 AM 62.2°F16.8°C 56.0°F13.3°C 80% 3.1 mph E5.0 kmh E 8.3 mph13.4 kmh 30.36 in1028.1 mb 0.00 in0.0 mm 0.00 in/hr0.0 mm/hr 0.00 in0.0 mm
02:33 AM 62.2°F16.8°C 56.0°F13.3°C 80% 3.8 mph E6.1 kmh E 8.3 mph13.4 kmh 30.36 in1028.1 mb 0.00 in0.0 mm 0.00 in/hr0.0 mm/hr 0.00 in0.0 mm
02:32 AM 62.2°F16.8°C 56.0°F13.3°C 80% 4.5 mph E7.2 kmh E 8.3 mph13.4 kmh 30.36 in1028.1 mb 0.00 in0.0 mm 0.00 in/hr0.0 mm/hr 0.00 in0.0 mm
02:31 AM 62.2°F16.8°C 56.0°F13.3°C 80% 2.2 mph ENE3.5 kmh ENE 8.3 mph13.4 kmh 30.36 in1028.1 mb 0.00 in0.0 mm 0.00 in/hr0.0 mm/hr 0.00 in0.0 mm
02:30 AM 62.2°F16.8°C 56.0°F13.3°C 80% 3.8 mph ENE6.1 kmh ENE 8.3 mph13.4 kmh 30.36 in1028.1 mb 0.00 in0.0 mm 0.00 in/hr0.0 mm/hr 0.00 in0.0 mm
02:29 AM 61.9°F16.6°C 56.0°F13.3°C 81% 4.5 mph ENE7.2 kmh ENE 7.6 mph12.2 kmh 30.36 in1028.1 mb 0.00 in0.0 mm 0.00 in/hr0.0 mm/hr 0.00 in0.0 mm
02:28 AM 62.1°F16.7°C 56.2°F13.4°C 81% 3.1 mph ENE5.0 kmh ENE 7.6 mph12.2 kmh 30.36 in1028.1 mb 0.00 in0.0 mm 0.00 in/hr0.0 mm/hr 0.00 in0.0 mm
02:27 AM 62.2°F16.8°C 56.4°F13.6°C 81% 3.1 mph ENE5.0 kmh ENE 7.6 mph12.2 kmh 30.36 in1028.1 mb 0.00 in0.0 mm 0.00 in/hr0.0 mm/hr 0.00 in0.0 mm
02:26 AM 62.1°F16.7°C 56.2°F13.4°C 81% 3.8 mph ENE6.1 kmh ENE 7.6 mph12.2 kmh 30.36 in1028.1 mb 0.00 in0.0 mm 0.00 in/hr0.0 mm/hr 0.00 in0.0 mm
02:25 AM 62.1°F16.7°C 56.2°F13.4°C 81% 1.6 mph ENE2.6 kmh ENE 4.5 mph7.2 kmh 30.36 in1028.1 mb 0.00 in0.0 mm 0.00 in/hr0.0 mm/hr 0.00 in0.0 mm
02:24 AM 62.1°F16.7°C 56.2°F13.4°C 81% 1.6 mph ENE2.6 kmh ENE 4.5 mph7.2 kmh 30.36 in1028.1 mb 0.00 in0.0 mm 0.00 in/hr0.0 mm/hr 0.00 in0.0 mm
02:23 AM 61.9°F16.6°C 56.0°F13.3°C 81% 3.1 mph NE5.0 kmh NE 4.5 mph7.2 kmh 30.36 in1028.1 mb 0.00 in0.0 mm 0.00 in/hr0.0 mm/hr 0.00 in0.0 mm
02:22 AM 61.9°F16.6°C 56.0°F13.3°C 81% 1.6 mph NE2.6 kmh NE 3.8 mph6.1 kmh 30.36 in1028.1 mb 0.00 in0.0 mm 0.00 in/hr0.0 mm/hr 0.00 in0.0 mm
02:21 AM 61.9°F16.6°C 56.0°F13.3°C 81% 0.7 mph NE1.1 kmh NE 4.5 mph7.2 kmh 30.36 in1028.1 mb 0.00 in0.0 mm 0.00 in/hr0.0 mm/hr 0.00 in0.0 mm
02:20 AM 62.1°F16.7°C 56.2°F13.4°C 81% 1.6 mph NE2.6 kmh NE 4.5 mph7.2 kmh 30.36 in1028.1 mb 0.00 in0.0 mm 0.00 in/hr0.0 mm/hr 0.00 in0.0 mm
02:19 AM 62.1°F16.7°C 56.2°F13.4°C 81% 1.6 mph NE2.6 kmh NE 4.5 mph7.2 kmh 30.36 in1028.1 mb 0.00 in0.0 mm 0.00 in/hr0.0 mm/hr 0.00 in0.0 mm
02:18 AM 61.9°F16.6°C 56.0°F13.3°C 81% 1.6 mph NE2.6 kmh NE 4.5 mph7.2 kmh 30.36 in1028.1 mb 0.00 in0.0 mm 0.00 in/hr0.0 mm/hr 0.00 in0.0 mm
02:17 AM 62.1°F16.7°C 56.2°F13.4°C 81% 1.6 mph NE2.6 kmh NE 4.5 mph7.2 kmh 30.36 in1028.1 mb 0.00 in0.0 mm 0.00 in/hr0.0 mm/hr 0.00 in0.0 mm
02:16 AM 62.1°F16.7°C 56.2°F13.4°C 81% 0.7 mph NE1.1 kmh NE 4.5 mph7.2 kmh 30.36 in1028.1 mb 0.00 in0.0 mm 0.00 in/hr0.0 mm/hr 0.00 in0.0 mm
02:15 AM 61.9°F16.6°C 56.0°F13.3°C 81% 1.6 mph NE2.6 kmh NE 4.5 mph7.2 kmh 30.36 in1028.1 mb 0.00 in0.0 mm 0.00 in/hr0.0 mm/hr 0.00 in0.0 mm
02:14 AM 62.1°F16.7°C 56.2°F13.4°C 81% 0.7 mph NE1.1 kmh NE 4.5 mph7.2 kmh 30.36 in1028.1 mb 0.00 in0.0 mm 0.00 in/hr0.0 mm/hr 0.00 in0.0 mm
02:13 AM 62.1°F16.7°C 56.2°F13.4°C 81% 0.7 mph NE1.1 kmh NE 4.5 mph7.2 kmh 30.36 in1028.1 mb 0.00 in0.0 mm 0.00 in/hr0.0 mm/hr 0.00 in0.0 mm
02:12 AM 62.1°F16.7°C 56.2°F13.4°C 81% 0.7 mph ENE1.1 kmh ENE 4.5 mph7.2 kmh 30.36 in1028.1 mb 0.00 in0.0 mm 0.00 in/hr0.0 mm/hr 0.00 in0.0 mm
02:11 AM 61.7°F16.5°C 55.8°F13.2°C 81% 1.6 mph ENE2.6 kmh ENE 4.5 mph7.2 kmh 30.36 in1028.1 mb 0.00 in0.0 mm 0.00 in/hr0.0 mm/hr 0.00 in0.0 mm
02:10 AM 61.9°F16.6°C 56.0°F13.3°C 81% Calm Calm 3.8 mph6.1 kmh 30.36 in1028.1 mb 0.00 in0.0 mm 0.00 in/hr0.0 mm/hr 0.00 in0.0 mm
02:09 AM 62.1°F16.7°C 56.2°F13.4°C 81% Calm Calm 3.8 mph6.1 kmh 30.36 in1028.1 mb 0.00 in0.0 mm 0.00 in/hr0.0 mm/hr 0.00 in0.0 mm
02:08 AM 62.1°F16.7°C 56.2°F13.4°C 81% Calm Calm 3.8 mph6.1 kmh 30.36 in1028.1 mb 0.00 in0.0 mm 0.00 in/hr0.0 mm/hr 0.00 in0.0 mm
02:07 AM 62.4°F16.9°C 56.5°F13.6°C 81% 2.2 mph ENE3.5 kmh ENE 3.8 mph6.1 kmh 30.36 in1028.1 mb 0.00 in0.0 mm 0.00 in/hr0.0 mm/hr 0.00 in0.0 mm
02:06 AM 62.4°F16.9°C 56.5°F13.6°C 81% 2.2 mph ENE3.5 kmh ENE 3.8 mph6.1 kmh 30.36 in1028.1 mb 0.00 in0.0 mm 0.00 in/hr0.0 mm/hr 0.00 in0.0 mm
02:05 AM 62.4°F16.9°C 56.5°F13.6°C 81% 2.2 mph ENE3.5 kmh ENE 3.8 mph6.1 kmh 30.36 in1028.1 mb 0.00 in0.0 mm 0.00 in/hr0.0 mm/hr 0.00 in0.0 mm
02:04 AM 62.4°F16.9°C 56.5°F13.6°C 81% 2.2 mph ENE3.5 kmh ENE 3.8 mph6.1 kmh 30.36 in1028.1 mb 0.00 in0.0 mm 0.00 in/hr0.0 mm/hr 0.00 in0.0 mm
02:03 AM 62.4°F16.9°C 56.5°F13.6°C 81% 2.2 mph ENE3.5 kmh ENE 3.8 mph6.1 kmh 30.36 in1028.1 mb 0.00 in0.0 mm 0.00 in/hr0.0 mm/hr 0.00 in0.0 mm
02:02 AM 62.4°F16.9°C 56.5°F13.6°C 81% 2.2 mph ENE3.5 kmh ENE 3.8 mph6.1 kmh 30.36 in1028.1 mb 0.00 in0.0 mm 0.00 in/hr0.0 mm/hr 0.00 in0.0 mm
02:01 AM 62.4°F16.9°C 56.5°F13.6°C 81% 2.2 mph ENE3.5 kmh ENE 3.8 mph6.1 kmh 30.36 in1028.1 mb 0.00 in0.0 mm 0.00 in/hr0.0 mm/hr 0.00 in0.0 mm
02:00 AM 62.4°F16.9°C 56.5°F13.6°C 81% 2.2 mph ENE3.5 kmh ENE 3.8 mph6.1 kmh 30.36 in1028.1 mb 0.00 in0.0 mm 0.00 in/hr0.0 mm/hr 0.00 in0.0 mm
01:59 AM 62.4°F16.9°C 56.5°F13.6°C 81% 2.2 mph ENE3.5 kmh ENE 3.8 mph6.1 kmh 30.36 in1028.1 mb 0.00 in0.0 mm 0.00 in/hr0.0 mm/hr 0.00 in0.0 mm
01:58 AM 62.4°F16.9°C 56.5°F13.6°C 81% 0.7 mph ENE1.1 kmh ENE 3.8 mph6.1 kmh 30.36 in1028.1 mb 0.00 in0.0 mm 0.00 in/hr0.0 mm/hr 0.00 in0.0 mm
01:57 AM 62.4°F16.9°C 56.5°F13.6°C 81% Calm Calm 3.8 mph6.1 kmh 30.36 in1028.1 mb 0.00 in0.0 mm 0.00 in/hr0.0 mm/hr 0.00 in0.0 mm
01:56 AM 62.4°F16.9°C 56.5°F13.6°C 81% Calm Calm 3.8 mph6.1 kmh 30.36 in1028.1 mb 0.00 in0.0 mm 0.00 in/hr0.0 mm/hr 0.00 in0.0 mm
01:55 AM 62.4°F16.9°C 56.9°F13.8°C 82% 1.6 mph ENE2.6 kmh ENE 3.8 mph6.1 kmh 30.36 in1028.1 mb 0.00 in0.0 mm 0.00 in/hr0.0 mm/hr 0.00 in0.0 mm
01:54 AM 62.4°F16.9°C 56.9°F13.8°C 82% 1.6 mph ENE2.6 kmh ENE 3.8 mph6.1 kmh 30.36 in1028.1 mb 0.00 in0.0 mm 0.00 in/hr0.0 mm/hr 0.00 in0.0 mm
01:53 AM 62.2°F16.8°C 56.7°F13.7°C 82% 2.2 mph NE3.5 kmh NE 3.8 mph6.1 kmh 30.36 in1028.1 mb 0.00 in0.0 mm 0.00 in/hr0.0 mm/hr 0.00 in0.0 mm
01:52 AM 62.2°F16.8°C 56.7°F13.7°C 82% Calm Calm 2.2 mph3.5 kmh 30.36 in1028.1 mb 0.00 in0.0 mm 0.00 in/hr0.0 mm/hr 0.00 in0.0 mm
01:51 AM 62.2°F16.8°C 56.7°F13.7°C 82% Calm Calm 2.2 mph3.5 kmh 30.36 in1028.1 mb 0.00 in0.0 mm 0.00 in/hr0.0 mm/hr 0.00 in0.0 mm
01:50 AM 62.4°F16.9°C 56.9°F13.8°C 82% Calm Calm 2.2 mph3.5 kmh 30.36 in1028.1 mb 0.00 in0.0 mm 0.00 in/hr0.0 mm/hr 0.00 in0.0 mm
01:49 AM 62.4°F16.9°C 56.9°F13.8°C 82% Calm Calm 2.2 mph3.5 kmh 30.36 in1028.1 mb 0.00 in0.0 mm 0.00 in/hr0.0 mm/hr 0.00 in0.0 mm
01:48 AM 62.4°F16.9°C 56.9°F13.8°C 82% Calm Calm 2.2 mph3.5 kmh 30.36 in1028.1 mb 0.00 in0.0 mm 0.00 in/hr0.0 mm/hr 0.00 in0.0 mm
01:47 AM 62.4°F16.9°C 56.9°F13.8°C 82% 0.7 mph NE1.1 kmh NE 2.2 mph3.5 kmh 30.36 in1028.1 mb 0.00 in0.0 mm 0.00 in/hr0.0 mm/hr 0.00 in0.0 mm
01:46 AM 62.4°F16.9°C 56.9°F13.8°C 82% 0.7 mph ENE1.1 kmh ENE 2.2 mph3.5 kmh 30.36 in1028.1 mb 0.00 in0.0 mm 0.00 in/hr0.0 mm/hr 0.00 in0.0 mm
01:45 AM 62.4°F16.9°C 56.9°F13.8°C 82% Calm Calm 2.2 mph3.5 kmh 30.36 in1028.1 mb 0.00 in0.0 mm 0.00 in/hr0.0 mm/hr 0.00 in0.0 mm
01:44 AM 62.4°F16.9°C 56.9°F13.8°C 82% Calm Calm 2.2 mph3.5 kmh 30.36 in1028.1 mb 0.00 in0.0 mm 0.00 in/hr0.0 mm/hr 0.00 in0.0 mm
01:43 AM 62.4°F16.9°C 56.5°F13.6°C 81% Calm Calm 2.2 mph3.5 kmh 30.36 in1028.1 mb 0.00 in0.0 mm 0.00 in/hr0.0 mm/hr 0.00 in0.0 mm
01:42 AM 62.6°F17.0°C 56.4°F13.6°C 80% Calm Calm 2.2 mph3.5 kmh 30.35 in1027.8 mb 0.00 in0.0 mm 0.00 in/hr0.0 mm/hr 0.00 in0.0 mm
01:41 AM 62.6°F17.0°C 56.4°F13.6°C 80% Calm Calm 1.6 mph2.6 kmh 30.35 in1027.8 mb 0.00 in0.0 mm 0.00 in/hr0.0 mm/hr 0.00 in0.0 mm
01:40 AM 63.1°F17.3°C 56.9°F13.8°C 80% 0.7 mph ENE1.1 kmh ENE 1.6 mph2.6 kmh 30.35 in1027.8 mb 0.00 in0.0 mm 0.00 in/hr0.0 mm/hr 0.00 in0.0 mm
01:39 AM 63.1°F17.3°C 56.9°F13.8°C 80% 0.7 mph ENE1.1 kmh ENE 1.6 mph2.6 kmh 30.35 in1027.8 mb 0.00 in0.0 mm 0.00 in/hr0.0 mm/hr 0.00 in0.0 mm
01:38 AM 63.1°F17.3°C 56.9°F13.8°C 80% 0.7 mph ENE1.1 kmh ENE 1.6 mph2.6 kmh 30.35 in1027.8 mb 0.00 in0.0 mm 0.00 in/hr0.0 mm/hr 0.00 in0.0 mm
01:37 AM 63.1°F17.3°C 56.9°F13.8°C 80% 0.7 mph ENE1.1 kmh ENE 1.6 mph2.6 kmh 30.35 in1027.8 mb 0.00 in0.0 mm 0.00 in/hr0.0 mm/hr 0.00 in0.0 mm
01:36 AM 63.1°F17.3°C 56.9°F13.8°C 80% 0.7 mph E1.1 kmh E 3.1 mph5.0 kmh 30.35 in1027.8 mb 0.00 in0.0 mm 0.00 in/hr0.0 mm/hr 0.00 in0.0 mm
01:35 AM 63.1°F17.3°C 56.9°F13.8°C 80% 0.7 mph ENE1.1 kmh ENE 3.8 mph6.1 kmh 30.35 in1027.8 mb 0.00 in0.0 mm 0.00 in/hr0.0 mm/hr 0.00 in0.0 mm
01:34 AM 63.1°F17.3°C 56.9°F13.8°C 80% 0.7 mph ENE1.1 kmh ENE 3.8 mph6.1 kmh 30.35 in1027.8 mb 0.00 in0.0 mm 0.00 in/hr0.0 mm/hr 0.00 in0.0 mm
01:33 AM 63.1°F17.3°C 56.9°F13.8°C 80% 0.7 mph ENE1.1 kmh ENE 3.8 mph6.1 kmh 30.35 in1027.8 mb 0.00 in0.0 mm 0.00 in/hr0.0 mm/hr 0.00 in0.0 mm
01:32 AM 63.3°F17.4°C 56.4°F13.6°C 78% Calm Calm 3.8 mph6.1 kmh 30.35 in1027.8 mb 0.00 in0.0 mm 0.00 in/hr0.0 mm/hr 0.00 in0.0 mm
01:31 AM 63.3°F17.4°C 56.4°F13.6°C 78% Calm Calm 3.8 mph6.1 kmh 30.35 in1027.8 mb 0.00 in0.0 mm 0.00 in/hr0.0 mm/hr 0.00 in0.0 mm
01:30 AM 63.5°F17.5°C 56.5°F13.6°C 78% 0.7 mph ENE1.1 kmh ENE 3.8 mph6.1 kmh 30.35 in1027.8 mb 0.00 in0.0 mm 0.00 in/hr0.0 mm/hr 0.00 in0.0 mm
01:29 AM 63.5°F17.5°C 56.5°F13.6°C 78% Calm Calm 3.8 mph6.1 kmh 30.35 in1027.8 mb 0.00 in0.0 mm 0.00 in/hr0.0 mm/hr 0.00 in0.0 mm
01:28 AM 63.7°F17.6°C 56.7°F13.7°C 78% Calm Calm 3.8 mph6.1 kmh 30.35 in1027.8 mb 0.00 in0.0 mm 0.00 in/hr0.0 mm/hr 0.00 in0.0 mm
01:27 AM 63.7°F17.6°C 56.7°F13.7°C 78% Calm Calm 3.8 mph6.1 kmh 30.35 in1027.8 mb 0.00 in0.0 mm 0.00 in/hr0.0 mm/hr 0.00 in0.0 mm
01:26 AM 63.5°F17.5°C 56.5°F13.6°C 78% 2.2 mph ENE3.5 kmh ENE 3.8 mph6.1 kmh 30.35 in1027.8 mb 0.00 in0.0 mm 0.00 in/hr0.0 mm/hr 0.00 in0.0 mm
01:25 AM 63.5°F17.5°C 56.5°F13.6°C 78% 1.6 mph ENE2.6 kmh ENE 3.8 mph6.1 kmh 30.35 in1027.8 mb 0.00 in0.0 mm 0.00 in/hr0.0 mm/hr 0.00 in0.0 mm
01:24 AM 63.7°F17.6°C 56.7°F13.7°C 78% 0.7 mph ENE1.1 kmh ENE 5.4 mph8.7 kmh 30.35 in1027.8 mb 0.00 in0.0 mm 0.00 in/hr0.0 mm/hr 0.00 in0.0 mm
01:23 AM 63.7°F17.6°C 56.7°F13.7°C 78% 1.6 mph ENE2.6 kmh ENE 5.4 mph8.7 kmh 30.35 in1027.8 mb 0.00 in0.0 mm 0.00 in/hr0.0 mm/hr 0.00 in0.0 mm
01:22 AM 63.9°F17.7°C 56.5°F13.6°C 77% 1.6 mph ENE2.6 kmh ENE 6.9 mph11.1 kmh 30.35 in1027.8 mb 0.00 in0.0 mm 0.00 in/hr0.0 mm/hr 0.00 in0.0 mm
01:21 AM 63.9°F17.7°C 56.5°F13.6°C 77% 2.2 mph ENE3.5 kmh ENE 6.9 mph11.1 kmh 30.35 in1027.8 mb 0.00 in0.0 mm 0.00 in/hr0.0 mm/hr 0.00 in0.0 mm
01:20 AM 63.9°F17.7°C 56.5°F13.6°C 77% 1.6 mph ENE2.6 kmh ENE 6.9 mph11.1 kmh 30.35 in1027.8 mb 0.00 in0.0 mm 0.00 in/hr0.0 mm/hr 0.00 in0.0 mm
01:19 AM 63.9°F17.7°C 56.5°F13.6°C 77% 1.6 mph E2.6 kmh E 6.9 mph11.1 kmh 30.36 in1028.1 mb 0.00 in0.0 mm 0.00 in/hr0.0 mm/hr 0.00 in0.0 mm
01:18 AM 64.0°F17.8°C 56.3°F13.5°C 76% 1.6 mph E2.6 kmh E 6.9 mph11.1 kmh 30.35 in1027.8 mb 0.00 in0.0 mm 0.00 in/hr0.0 mm/hr 0.00 in0.0 mm
01:17 AM 64.0°F17.8°C 56.3°F13.5°C 76% 1.6 mph E2.6 kmh E 6.9 mph11.1 kmh 30.35 in1027.8 mb 0.00 in0.0 mm 0.00 in/hr0.0 mm/hr 0.00 in0.0 mm
01:16 AM 64.0°F17.8°C 56.3°F13.5°C 76% 2.2 mph ENE3.5 kmh ENE 6.9 mph11.1 kmh 30.35 in1027.8 mb 0.00 in0.0 mm 0.00 in/hr0.0 mm/hr 0.00 in0.0 mm
01:15 AM 64.2°F17.9°C 56.5°F13.6°C 76% 2.2 mph ENE3.5 kmh ENE 7.6 mph12.2 kmh 30.35 in1027.8 mb 0.00 in0.0 mm 0.00 in/hr0.0 mm/hr 0.00 in0.0 mm
01:14 AM 64.4°F18.0°C 56.3°F13.5°C 75% 3.1 mph ENE5.0 kmh ENE 7.6 mph12.2 kmh 30.35 in1027.8 mb 0.00 in0.0 mm 0.00 in/hr0.0 mm/hr 0.00 in0.0 mm
01:13 AM 64.4°F18.0°C 56.3°F13.5°C 75% 3.1 mph ENE5.0 kmh ENE 7.6 mph12.2 kmh 30.35 in1027.8 mb 0.00 in0.0 mm 0.00 in/hr0.0 mm/hr 0.00 in0.0 mm
01:12 AM 64.4°F18.0°C 56.3°F13.5°C 75% 3.8 mph ENE6.1 kmh ENE 7.6 mph12.2 kmh 30.35 in1027.8 mb 0.00 in0.0 mm 0.00 in/hr0.0 mm/hr 0.00 in0.0 mm
01:11 AM 64.4°F18.0°C 56.3°F13.5°C 75% 3.1 mph ENE5.0 kmh ENE 7.6 mph12.2 kmh 30.35 in1027.8 mb 0.00 in0.0 mm 0.00 in/hr0.0 mm/hr 0.00 in0.0 mm
01:10 AM 64.4°F18.0°C 56.3°F13.5°C 75% 3.1 mph ENE5.0 kmh ENE 7.6 mph12.2 kmh 30.35 in1027.8 mb 0.00 in0.0 mm 0.00 in/hr0.0 mm/hr 0.00 in0.0 mm
01:09 AM 64.4°F18.0°C 56.3°F13.5°C 75% 3.1 mph ENE5.0 kmh ENE 7.6 mph12.2 kmh 30.34 in1027.4 mb 0.00 in0.0 mm 0.00 in/hr0.0 mm/hr 0.00 in0.0 mm
01:08 AM 64.6°F18.1°C 56.5°F13.6°C 75% 3.1 mph ENE5.0 kmh ENE 7.6 mph12.2 kmh 30.34 in1027.4 mb 0.00 in0.0 mm 0.00 in/hr0.0 mm/hr 0.00 in0.0 mm
01:07 AM 64.6°F18.1°C 56.5°F13.6°C 75% 2.2 mph ENE3.5 kmh ENE 7.6 mph12.2 kmh 30.34 in1027.4 mb 0.00 in0.0 mm 0.00 in/hr0.0 mm/hr 0.00 in0.0 mm
01:06 AM 64.6°F18.1°C 56.5°F13.6°C 75% 4.5 mph ENE7.2 kmh ENE 8.3 mph13.4 kmh 30.35 in1027.8 mb 0.00 in0.0 mm 0.00 in/hr0.0 mm/hr 0.00 in0.0 mm
01:05 AM 64.6°F18.1°C 56.5°F13.6°C 75% 4.5 mph ENE7.2 kmh ENE 9.2 mph14.8 kmh 30.34 in1027.4 mb 0.00 in0.0 mm 0.00 in/hr0.0 mm/hr 0.00 in0.0 mm
01:04 AM 64.8°F18.2°C 56.7°F13.7°C 75% 3.8 mph ENE6.1 kmh ENE 9.8 mph15.8 kmh 30.35 in1027.8 mb 0.00 in0.0 mm 0.00 in/hr0.0 mm/hr 0.00 in0.0 mm
01:03 AM 64.8°F18.2°C 56.7°F13.7°C 75% 3.8 mph ENE6.1 kmh ENE 9.8 mph15.8 kmh 30.34 in1027.4 mb 0.00 in0.0 mm 0.00 in/hr0.0 mm/hr 0.00 in0.0 mm
01:02 AM 64.6°F18.1°C 56.5°F13.6°C 75% 3.1 mph ENE5.0 kmh ENE 9.8 mph15.8 kmh 30.34 in1027.4 mb 0.00 in0.0 mm 0.00 in/hr0.0 mm/hr 0.00 in0.0 mm
01:01 AM 64.6°F18.1°C 56.5°F13.6°C 75% 3.1 mph ENE5.0 kmh ENE 9.8 mph15.8 kmh 30.34 in1027.4 mb 0.00 in0.0 mm 0.00 in/hr0.0 mm/hr 0.00 in0.0 mm
01:00 AM 64.6°F18.1°C 56.5°F13.6°C 75% 3.1 mph ENE5.0 kmh ENE 9.8 mph15.8 kmh 30.34 in1027.4 mb 0.00 in0.0 mm 0.00 in/hr0.0 mm/hr 0.00 in0.0 mm
12:59 AM 64.4°F18.0°C 56.3°F13.5°C 75% 3.8 mph ENE6.1 kmh ENE 9.8 mph15.8 kmh 30.34 in1027.4 mb 0.00 in0.0 mm 0.00 in/hr0.0 mm/hr 0.00 in0.0 mm
12:58 AM 64.6°F18.1°C 56.5°F13.6°C 75% 4.5 mph ENE7.2 kmh ENE 9.8 mph15.8 kmh 30.34 in1027.4 mb 0.00 in0.0 mm 0.00 in/hr0.0 mm/hr 0.00 in0.0 mm
12:57 AM 64.8°F18.2°C 56.7°F13.7°C 75% 3.8 mph ENE6.1 kmh ENE 9.8 mph15.8 kmh 30.34 in1027.4 mb 0.00 in0.0 mm 0.00 in/hr0.0 mm/hr 0.00 in0.0 mm
12:56 AM 64.8°F18.2°C 56.7°F13.7°C 75% 6.0 mph ENE9.7 kmh ENE 9.8 mph15.8 kmh 30.34 in1027.4 mb 0.00 in0.0 mm 0.00 in/hr0.0 mm/hr 0.00 in0.0 mm
12:55 AM 64.8°F18.2°C 57.0°F13.9°C 76% 5.4 mph ENE8.7 kmh ENE 9.8 mph15.8 kmh 30.34 in1027.4 mb 0.00 in0.0 mm 0.00 in/hr0.0 mm/hr 0.00 in0.0 mm
12:54 AM 64.4°F18.0°C 56.7°F13.7°C 76% 5.4 mph NE8.7 kmh NE 9.8 mph15.8 kmh 30.34 in1027.4 mb 0.00 in0.0 mm 0.00 in/hr0.0 mm/hr 0.00 in0.0 mm
12:53 AM 64.4°F18.0°C 56.7°F13.7°C 76% 4.5 mph NE7.2 kmh NE 8.3 mph13.4 kmh 30.34 in1027.4 mb 0.00 in0.0 mm 0.00 in/hr0.0 mm/hr 0.00 in0.0 mm
12:52 AM 64.6°F18.1°C 56.5°F13.6°C 75% 3.8 mph ENE6.1 kmh ENE 7.6 mph12.2 kmh 30.34 in1027.4 mb 0.00 in0.0 mm 0.00 in/hr0.0 mm/hr 0.00 in0.0 mm
12:51 AM 64.8°F18.2°C 56.7°F13.7°C 75% 5.4 mph ENE8.7 kmh ENE 7.6 mph12.2 kmh 30.34 in1027.4 mb 0.00 in0.0 mm 0.00 in/hr0.0 mm/hr 0.00 in0.0 mm
12:50 AM 64.8°F18.2°C 56.7°F13.7°C 75% 4.5 mph ENE7.2 kmh ENE 8.3 mph13.4 kmh 30.34 in1027.4 mb 0.00 in0.0 mm 0.00 in/hr0.0 mm/hr 0.00 in0.0 mm
12:49 AM 64.8°F18.2°C 56.7°F13.7°C 75% 4.5 mph ENE7.2 kmh ENE 8.3 mph13.4 kmh 30.34 in1027.4 mb 0.00 in0.0 mm 0.00 in/hr0.0 mm/hr 0.00 in0.0 mm
12:48 AM 64.8°F18.2°C 56.7°F13.7°C 75% 3.8 mph ENE6.1 kmh ENE 8.3 mph13.4 kmh 30.34 in1027.4 mb 0.00 in0.0 mm 0.00 in/hr0.0 mm/hr 0.00 in0.0 mm
12:47 AM 64.8°F18.2°C 56.7°F13.7°C 75% 5.4 mph ENE8.7 kmh ENE 8.3 mph13.4 kmh 30.34 in1027.4 mb 0.00 in0.0 mm 0.00 in/hr0.0 mm/hr 0.00 in0.0 mm
12:44 AM 64.9°F18.3°C 56.8°F13.8°C 75% 4.5 mph ENE7.2 kmh ENE 9.2 mph14.8 kmh 30.34 in1027.4 mb 0.00 in0.0 mm 0.00 in/hr0.0 mm/hr 0.00 in0.0 mm
12:43 AM 64.9°F18.3°C 56.8°F13.8°C 75% 4.5 mph ENE7.2 kmh ENE 9.2 mph14.8 kmh 30.34 in1027.4 mb 0.00 in0.0 mm 0.00 in/hr0.0 mm/hr 0.00 in0.0 mm
12:42 AM 64.9°F18.3°C 56.8°F13.8°C 75% 4.5 mph ENE7.2 kmh ENE 9.2 mph14.8 kmh 30.34 in1027.4 mb 0.00 in0.0 mm 0.00 in/hr0.0 mm/hr 0.00 in0.0 mm
12:41 AM 65.1°F18.4°C 56.3°F13.5°C 73% 5.4 mph ENE8.7 kmh ENE 9.2 mph14.8 kmh 30.34 in1027.4 mb 0.00 in0.0 mm 0.00 in/hr0.0 mm/hr 0.00 in0.0 mm
12:40 AM 65.1°F18.4°C 57.0°F13.9°C 75% 5.4 mph ENE8.7 kmh ENE 9.2 mph14.8 kmh 30.34 in1027.4 mb 0.00 in0.0 mm 0.00 in/hr0.0 mm/hr 0.00 in0.0 mm
12:39 AM 64.9°F18.3°C 56.8°F13.8°C 75% 3.8 mph ENE6.1 kmh ENE 9.2 mph14.8 kmh 30.34 in1027.4 mb 0.00 in0.0 mm 0.00 in/hr0.0 mm/hr 0.00 in0.0 mm
12:38 AM 65.1°F18.4°C 56.3°F13.5°C 73% 4.5 mph ENE7.2 kmh ENE 9.2 mph14.8 kmh 30.34 in1027.4 mb 0.00 in0.0 mm 0.00 in/hr0.0 mm/hr 0.00 in0.0 mm
12:37 AM 65.3°F18.5°C 56.4°F13.6°C 73% 5.4 mph ENE8.7 kmh ENE 9.2 mph14.8 kmh 30.34 in1027.4 mb 0.00 in0.0 mm 0.00 in/hr0.0 mm/hr 0.00 in0.0 mm
12:36 AM 65.3°F18.5°C 56.4°F13.6°C 73% 6.9 mph ENE11.1 kmh ENE 9.2 mph14.8 kmh 30.34 in1027.4 mb 0.00 in0.0 mm 0.00 in/hr0.0 mm/hr 0.00 in0.0 mm
12:35 AM 65.3°F18.5°C 56.4°F13.6°C 73% 5.4 mph ENE8.7 kmh ENE 8.3 mph13.4 kmh 30.34 in1027.4 mb 0.00 in0.0 mm 0.00 in/hr0.0 mm/hr 0.00 in0.0 mm
12:34 AM 65.3°F18.5°C 57.2°F14.0°C 75% 5.4 mph ENE8.7 kmh ENE 8.3 mph13.4 kmh 30.34 in1027.4 mb 0.00 in0.0 mm 0.00 in/hr0.0 mm/hr 0.00 in0.0 mm
12:33 AM 64.9°F18.3°C 57.2°F14.0°C 76% 5.4 mph ENE8.7 kmh ENE 8.3 mph13.4 kmh 30.34 in1027.4 mb 0.00 in0.0 mm 0.00 in/hr0.0 mm/hr 0.00 in0.0 mm
12:32 AM 64.9°F18.3°C 57.2°F14.0°C 76% 3.1 mph ENE5.0 kmh ENE 8.3 mph13.4 kmh 30.34 in1027.4 mb 0.00 in0.0 mm 0.00 in/hr0.0 mm/hr 0.00 in0.0 mm
12:31 AM 64.9°F18.3°C 57.2°F14.0°C 76% 3.8 mph ENE6.1 kmh ENE 8.3 mph13.4 kmh 30.34 in1027.4 mb 0.00 in0.0 mm 0.00 in/hr0.0 mm/hr 0.00 in0.0 mm
12:30 AM 64.9°F18.3°C 56.8°F13.8°C 75% 4.5 mph ENE7.2 kmh ENE 8.3 mph13.4 kmh 30.34 in1027.4 mb 0.00 in0.0 mm 0.00 in/hr0.0 mm/hr 0.00 in0.0 mm
12:29 AM 65.1°F18.4°C 57.0°F13.9°C 75% 4.5 mph ENE7.2 kmh ENE 8.3 mph13.4 kmh 30.34 in1027.4 mb 0.00 in0.0 mm 0.00 in/hr0.0 mm/hr 0.00 in0.0 mm
12:28 AM 65.3°F18.5°C 57.2°F14.0°C 75% 3.8 mph ENE6.1 kmh ENE 8.3 mph13.4 kmh 30.34 in1027.4 mb 0.00 in0.0 mm 0.00 in/hr0.0 mm/hr 0.00 in0.0 mm
12:27 AM 65.3°F18.5°C 57.6°F14.2°C 76% 3.8 mph ENE6.1 kmh ENE 8.3 mph13.4 kmh 30.34 in1027.4 mb 0.00 in0.0 mm 0.00 in/hr0.0 mm/hr 0.00 in0.0 mm
12:26 AM 65.1°F18.4°C 57.4°F14.1°C 76% 5.4 mph ENE8.7 kmh ENE 8.3 mph13.4 kmh 30.34 in1027.4 mb 0.00 in0.0 mm 0.00 in/hr0.0 mm/hr 0.00 in0.0 mm
12:25 AM 65.3°F18.5°C 57.6°F14.2°C 76% 3.8 mph ENE6.1 kmh ENE 8.3 mph13.4 kmh 30.34 in1027.4 mb 0.00 in0.0 mm 0.00 in/hr0.0 mm/hr 0.00 in0.0 mm
12:24 AM 65.5°F18.6°C 57.7°F14.3°C 76% 6.0 mph ENE9.7 kmh ENE 8.3 mph13.4 kmh 30.34 in1027.4 mb 0.00 in0.0 mm 0.00 in/hr0.0 mm/hr 0.00 in0.0 mm
12:23 AM 65.3°F18.5°C 57.6°F14.2°C 76% 5.4 mph ENE8.7 kmh ENE 7.6 mph12.2 kmh 30.34 in1027.4 mb 0.00 in0.0 mm 0.00 in/hr0.0 mm/hr 0.00 in0.0 mm
12:22 AM 64.8°F18.2°C 57.8°F14.3°C 78% 4.5 mph ENE7.2 kmh ENE 7.6 mph12.2 kmh 30.34 in1027.4 mb 0.00 in0.0 mm 0.00 in/hr0.0 mm/hr 0.00 in0.0 mm
12:21 AM 64.9°F18.3°C 57.9°F14.4°C 78% 3.8 mph ENE6.1 kmh ENE 6.0 mph9.7 kmh 30.34 in1027.4 mb 0.00 in0.0 mm 0.00 in/hr0.0 mm/hr 0.00 in0.0 mm
12:20 AM 64.9°F18.3°C 57.9°F14.4°C 78% 4.5 mph ENE7.2 kmh ENE 6.0 mph9.7 kmh 30.34 in1027.4 mb 0.00 in0.0 mm 0.00 in/hr0.0 mm/hr 0.00 in0.0 mm
12:19 AM 64.8°F18.2°C 58.5°F14.7°C 80% 3.8 mph ENE6.1 kmh ENE 6.0 mph9.7 kmh 30.34 in1027.4 mb 0.00 in0.0 mm 0.00 in/hr0.0 mm/hr 0.00 in0.0 mm
12:18 AM 64.8°F18.2°C 58.5°F14.7°C 80% 3.1 mph ENE5.0 kmh ENE 5.4 mph8.7 kmh 30.34 in1027.4 mb 0.00 in0.0 mm 0.00 in/hr0.0 mm/hr 0.00 in0.0 mm
12:17 AM 64.8°F18.2°C 58.5°F14.7°C 80% 3.8 mph ENE6.1 kmh ENE 5.4 mph8.7 kmh 30.33 in1027.1 mb 0.00 in0.0 mm 0.00 in/hr0.0 mm/hr 0.00 in0.0 mm
12:16 AM 64.6°F18.1°C 58.3°F14.6°C 80% 3.1 mph ENE5.0 kmh ENE 5.4 mph8.7 kmh 30.33 in1027.1 mb 0.00 in0.0 mm 0.00 in/hr0.0 mm/hr 0.00 in0.0 mm
12:15 AM 64.8°F18.2°C 58.5°F14.7°C 80% 2.2 mph ENE3.5 kmh ENE 5.4 mph8.7 kmh 30.33 in1027.1 mb 0.00 in0.0 mm 0.00 in/hr0.0 mm/hr 0.00 in0.0 mm
12:14 AM 64.8°F18.2°C 57.8°F14.3°C 78% 1.6 mph ENE2.6 kmh ENE 5.4 mph8.7 kmh 30.33 in1027.1 mb 0.00 in0.0 mm 0.00 in/hr0.0 mm/hr 0.00 in0.0 mm
12:13 AM 64.8°F18.2°C 57.8°F14.3°C 78% 3.8 mph ENE6.1 kmh ENE 5.4 mph8.7 kmh 30.33 in1027.1 mb 0.00 in0.0 mm 0.00 in/hr0.0 mm/hr 0.00 in0.0 mm
12:12 AM 64.9°F18.3°C 57.9°F14.4°C 78% 3.1 mph ENE5.0 kmh ENE 5.4 mph8.7 kmh 30.33 in1027.1 mb 0.00 in0.0 mm 0.00 in/hr0.0 mm/hr 0.00 in0.0 mm
12:11 AM 64.9°F18.3°C 57.9°F14.4°C 78% 2.2 mph ENE3.5 kmh ENE 5.4 mph8.7 kmh 30.33 in1027.1 mb 0.00 in0.0 mm 0.00 in/hr0.0 mm/hr 0.00 in0.0 mm
12:10 AM 64.9°F18.3°C 57.9°F14.4°C 78% 3.1 mph ENE5.0 kmh ENE 5.4 mph8.7 kmh 30.33 in1027.1 mb 0.00 in0.0 mm 0.00 in/hr0.0 mm/hr 0.00 in0.0 mm
12:09 AM 64.9°F18.3°C 57.9°F14.4°C 78% 3.1 mph ENE5.0 kmh ENE 4.5 mph7.2 kmh 30.33 in1027.1 mb 0.00 in0.0 mm 0.00 in/hr0.0 mm/hr 0.00 in0.0 mm
12:08 AM 65.1°F18.4°C 58.1°F14.5°C 78% 2.2 mph ENE3.5 kmh ENE 4.5 mph7.2 kmh 30.33 in1027.1 mb 0.00 in0.0 mm 0.00 in/hr0.0 mm/hr 0.00 in0.0 mm
12:07 AM 65.1°F18.4°C 58.1°F14.5°C 78% 2.2 mph ENE3.5 kmh ENE 4.5 mph7.2 kmh 30.33 in1027.1 mb 0.00 in0.0 mm 0.00 in/hr0.0 mm/hr 0.00 in0.0 mm
12:06 AM 64.9°F18.3°C 57.9°F14.4°C 78% 3.1 mph ENE5.0 kmh ENE 4.5 mph7.2 kmh 30.33 in1027.1 mb 0.00 in0.0 mm 0.00 in/hr0.0 mm/hr 0.00 in0.0 mm
12:05 AM 65.1°F18.4°C 58.1°F14.5°C 78% 1.6 mph ENE2.6 kmh ENE 4.5 mph7.2 kmh 30.33 in1027.1 mb 0.00 in0.0 mm 0.00 in/hr0.0 mm/hr 0.00 in0.0 mm
12:04 AM 65.3°F18.5°C 58.3°F14.6°C 78% 1.6 mph ENE2.6 kmh ENE 4.5 mph7.2 kmh 30.33 in1027.1 mb 0.00 in0.0 mm 0.00 in/hr0.0 mm/hr 0.00 in0.0 mm
12:03 AM 65.1°F18.4°C 58.1°F14.5°C 78% 3.8 mph ENE6.1 kmh ENE 4.5 mph7.2 kmh 30.33 in1027.1 mb 0.00 in0.0 mm 0.00 in/hr0.0 mm/hr 0.00 in0.0 mm
12:02 AM 64.9°F18.3°C 57.9°F14.4°C 78% 2.2 mph ENE3.5 kmh ENE 4.5 mph7.2 kmh 30.34 in1027.4 mb 0.00 in0.0 mm 0.00 in/hr0.0 mm/hr 0.00 in0.0 mm
12:01 AM 65.1°F18.4°C 57.8°F14.3°C 77% 1.6 mph ENE2.6 kmh ENE 4.5 mph7.2 kmh 30.34 in1027.4 mb 0.00 in0.0 mm 0.00 in/hr0.0 mm/hr 0.00 in0.0 mm
12:00 AM 65.3°F18.5°C 57.9°F14.4°C 77% 1.6 mph ENE2.6 kmh ENE 4.5 mph7.2 kmh 30.33 in1027.1 mb 0.00 in0.0 mm 0.00 in/hr0.0 mm/hr 0.00 in0.0 mm